PAY1385 KORD-EKCH
Flight info
| Callsign | PAY1385 |
|---|---|
| Flight time | 8h 2m |
| Altitude | 37000 |
| Route | RAYNR DCT BRTMN DCT TAAYZ DCT TVC DCT CANSO DCT TEALS/M084F370 DCT TOXIT DCT 62N050W/M084F390 64N040W 65N030W 65N020W 64N010W DCT VALDI/N0481F390 DCT TESPI |
| Aircraft | B772/H-SDE2E3FGHIJ5LORVWXY/LB1D1 |
Departure
| Time | 2026-04-24 23:06 |
|---|---|
| Airport | Chicago O'Hare International Airport (KORD) |
Arrival
| Time | 2026-04-25 07:09 |
|---|---|
| Airport | Copenhagen Kastrup Airport (EKCH) |
| Time | Latitude | Longitude | Altitude | Speed | Heading |
|---|---|---|---|---|---|
| 2026-04-24 22:21 | 41.97757 | -87.91137 | 674 ft | 0 kts | 99° |
| 2026-04-24 22:56 | 41.97759 | -87.91151 | 674 ft | 2 kts | 99° |
| 2026-04-24 22:56 | 41.97762 | -87.91171 | 674 ft | 2 kts | 99° |
| 2026-04-24 22:56 | 41.97764 | -87.91191 | 674 ft | 2 kts | 99° |
| 2026-04-24 22:57 | 41.97766 | -87.91204 | 674 ft | 2 kts | 99° |
| 2026-04-24 22:57 | 41.97766 | -87.91223 | 674 ft | 2 kts | 73° |
| 2026-04-24 22:57 | 41.97760 | -87.91241 | 674 ft | 2 kts | 51° |
| 2026-04-24 22:57 | 41.97749 | -87.91255 | 674 ft | 2 kts | 28° |
| 2026-04-24 22:58 | 41.97735 | -87.91262 | 675 ft | 2 kts | 6° |
| 2026-04-24 22:58 | 41.97720 | -87.91261 | 675 ft | 2 kts | 344° |
| 2026-04-24 22:58 | 41.97714 | -87.91258 | 675 ft | 1 kts | 338° |
| 2026-04-24 22:58 | 41.97713 | -87.91258 | 675 ft | 0 kts | 338° |
| 2026-04-24 23:00 | 41.97714 | -87.91258 | 675 ft | 0 kts | 338° |
| 2026-04-24 23:00 | 41.97724 | -87.91264 | 675 ft | 3 kts | 338° |
| 2026-04-24 23:00 | 41.97759 | -87.91282 | 674 ft | 6 kts | 339° |
| 2026-04-24 23:01 | 41.97816 | -87.91299 | 674 ft | 9 kts | 355° |
| 2026-04-24 23:01 | 41.97892 | -87.91289 | 674 ft | 12 kts | 15° |
| 2026-04-24 23:01 | 41.97976 | -87.91241 | 673 ft | 14 kts | 26° |
| 2026-04-24 23:01 | 41.98069 | -87.91175 | 673 ft | 16 kts | 29° |
| 2026-04-24 23:02 | 41.98159 | -87.91074 | 671 ft | 17 kts | 49° |
| 2026-04-24 23:02 | 41.98230 | -87.90927 | 670 ft | 19 kts | 64° |
| 2026-04-24 23:02 | 41.98275 | -87.90745 | 669 ft | 20 kts | 77° |
| 2026-04-24 23:02 | 41.98289 | -87.90550 | 668 ft | 21 kts | 89° |
| 2026-04-24 23:03 | 41.98292 | -87.90362 | 667 ft | 19 kts | 89° |
| 2026-04-24 23:03 | 41.98291 | -87.90180 | 667 ft | 19 kts | 90° |
| 2026-04-24 23:03 | 41.98289 | -87.89993 | 666 ft | 20 kts | 90° |
| 2026-04-24 23:03 | 41.98288 | -87.89800 | 664 ft | 21 kts | 90° |
| 2026-04-24 23:04 | 41.98280 | -87.89603 | 663 ft | 21 kts | 94° |
| 2026-04-24 23:04 | 41.98279 | -87.89407 | 662 ft | 20 kts | 89° |
| 2026-04-24 23:04 | 41.98280 | -87.89229 | 661 ft | 15 kts | 90° |
| 2026-04-24 23:04 | 41.98284 | -87.89094 | 660 ft | 13 kts | 75° |
| 2026-04-24 23:05 | 41.98351 | -87.89040 | 660 ft | 9 kts | 0° |
| 2026-04-24 23:05 | 41.98392 | -87.89071 | 660 ft | 5 kts | 280° |
| 2026-04-24 23:05 | 41.98391 | -87.89088 | 660 ft | 0 kts | 264° |
| 2026-04-24 23:05 | 41.98389 | -87.89121 | 660 ft | 19 kts | 267° |
| 2026-04-24 23:06 | 41.98390 | -87.89648 | 663 ft | 90 kts | 270° |
| 2026-04-24 23:06 | 41.98387 | -87.90752 | 669 ft | 146 kts | 270° |
| 2026-04-24 23:06 | 41.98387 | -87.92308 | 827 ft | 179 kts | 270° |
| 2026-04-24 23:06 | 41.98376 | -87.93971 | 1475 ft | 179 kts | 270° |
| 2026-04-24 23:07 | 41.98341 | -87.95584 | 2156 ft | 177 kts | 270° |
| 2026-04-24 23:07 | 41.98282 | -87.97322 | 2328 ft | 196 kts | 270° |
| 2026-04-24 23:07 | 41.98215 | -87.99236 | 2531 ft | 216 kts | 270° |
| 2026-04-24 23:07 | 41.98143 | -88.01349 | 2823 ft | 234 kts | 270° |
| 2026-04-24 23:08 | 41.98069 | -88.03613 | 3110 ft | 251 kts | 273° |
| 2026-04-24 23:08 | 41.98456 | -88.05882 | 3629 ft | 252 kts | 301° |
| 2026-04-24 23:08 | 41.99623 | -88.07570 | 4253 ft | 252 kts | 328° |
| 2026-04-24 23:08 | 42.01285 | -88.08279 | 4845 ft | 257 kts | 355° |
| 2026-04-24 23:09 | 42.03049 | -88.07819 | 5377 ft | 268 kts | 22° |
| 2026-04-24 23:09 | 42.04694 | -88.06584 | 5976 ft | 272 kts | 27° |
| 2026-04-24 23:09 | 42.06305 | -88.05229 | 6605 ft | 274 kts | 29° |
| 2026-04-24 23:09 | 42.07882 | -88.03812 | 7153 ft | 278 kts | 30° |
| 2026-04-24 23:10 | 42.09492 | -88.02348 | 7753 ft | 280 kts | 30° |
| 2026-04-24 23:10 | 42.11111 | -88.00874 | 8349 ft | 282 kts | 30° |
| 2026-04-24 23:10 | 42.12738 | -87.99391 | 8887 ft | 285 kts | 30° |
| 2026-04-24 23:10 | 42.14394 | -87.97881 | 9464 ft | 287 kts | 30° |
| 2026-04-24 23:11 | 42.16049 | -87.96371 | 10002 ft | 290 kts | 30° |
| 2026-04-24 23:11 | 42.17732 | -87.94835 | 10463 ft | 296 kts | 30° |
| 2026-04-24 23:11 | 42.19487 | -87.93237 | 10639 ft | 314 kts | 30° |
| 2026-04-24 23:11 | 42.21334 | -87.91551 | 10820 ft | 331 kts | 30° |
| 2026-04-24 23:12 | 42.23299 | -87.89755 | 11024 ft | 346 kts | 31° |
| 2026-04-24 23:12 | 42.25330 | -87.87895 | 11237 ft | 362 kts | 31° |
| 2026-04-24 23:12 | 42.27453 | -87.85947 | 11459 ft | 377 kts | 31° |
| 2026-04-24 23:12 | 42.29704 | -87.84059 | 11840 ft | 383 kts | 23° |
| 2026-04-24 23:13 | 42.32181 | -87.82771 | 12358 ft | 384 kts | 12° |
| 2026-04-24 23:13 | 42.34798 | -87.82150 | 12966 ft | 383 kts | 3° |
| 2026-04-24 23:13 | 42.37436 | -87.81794 | 13574 ft | 386 kts | 2° |
| 2026-04-24 23:13 | 42.40114 | -87.81451 | 14197 ft | 389 kts | 2° |
| 2026-04-24 23:14 | 42.42846 | -87.81104 | 14722 ft | 396 kts | 2° |
| 2026-04-24 23:14 | 42.45596 | -87.80753 | 15237 ft | 403 kts | 2° |
| 2026-04-24 23:14 | 42.48416 | -87.80596 | 15805 ft | 405 kts | 355° |
| 2026-04-24 23:14 | 42.51220 | -87.80753 | 16370 ft | 409 kts | 354° |
| 2026-04-24 23:15 | 42.54093 | -87.80942 | 16867 ft | 415 kts | 354° |
| 2026-04-24 23:15 | 42.56989 | -87.81131 | 17431 ft | 419 kts | 354° |
| 2026-04-24 23:15 | 42.59901 | -87.81319 | 18036 ft | 422 kts | 354° |
| 2026-04-24 23:15 | 42.62855 | -87.81511 | 18565 ft | 427 kts | 354° |
| 2026-04-24 23:16 | 42.65845 | -87.81704 | 19064 ft | 432 kts | 354° |
| 2026-04-24 23:16 | 42.68869 | -87.81562 | 19533 ft | 441 kts | 4° |
| 2026-04-24 23:16 | 42.71885 | -87.80710 | 20024 ft | 449 kts | 14° |
| 2026-04-24 23:16 | 42.74817 | -87.79140 | 20591 ft | 454 kts | 25° |
| 2026-04-24 23:17 | 42.77508 | -87.76942 | 21044 ft | 461 kts | 34° |
| 2026-04-24 23:17 | 42.80013 | -87.74178 | 21488 ft | 467 kts | 39° |
| 2026-04-24 23:17 | 42.82496 | -87.71285 | 21942 ft | 472 kts | 39° |
| 2026-04-24 23:17 | 42.85001 | -87.68384 | 22391 ft | 476 kts | 39° |
| 2026-04-24 23:18 | 42.87549 | -87.65455 | 22889 ft | 480 kts | 39° |
| 2026-04-24 23:18 | 42.90077 | -87.62562 | 23342 ft | 483 kts | 39° |
| 2026-04-24 23:18 | 42.92664 | -87.59610 | 23759 ft | 489 kts | 39° |
| 2026-04-24 23:18 | 42.95306 | -87.56602 | 24149 ft | 495 kts | 39° |
| 2026-04-24 23:19 | 42.97960 | -87.53583 | 24584 ft | 499 kts | 39° |
| 2026-04-24 23:19 | 43.00613 | -87.50566 | 25098 ft | 501 kts | 39° |
| 2026-04-24 23:19 | 43.03303 | -87.47508 | 25541 ft | 504 kts | 39° |
| 2026-04-24 23:19 | 43.05998 | -87.44443 | 25890 ft | 509 kts | 40° |
| 2026-04-24 23:20 | 43.08711 | -87.41355 | 26232 ft | 514 kts | 40° |
| 2026-04-24 23:20 | 43.11460 | -87.38223 | 26639 ft | 517 kts | 40° |
| 2026-04-24 23:20 | 43.14223 | -87.35072 | 26980 ft | 521 kts | 40° |
| 2026-04-24 23:20 | 43.16999 | -87.31903 | 27265 ft | 525 kts | 41° |
| 2026-04-24 23:21 | 43.19824 | -87.28674 | 27677 ft | 527 kts | 41° |
| 2026-04-24 23:21 | 43.22630 | -87.25465 | 28080 ft | 529 kts | 41° |
| 2026-04-24 23:21 | 43.25462 | -87.22221 | 28393 ft | 532 kts | 41° |
| 2026-04-24 23:21 | 43.28295 | -87.18973 | 28687 ft | 536 kts | 41° |
| 2026-04-24 23:22 | 43.31156 | -87.15688 | 28989 ft | 539 kts | 41° |
| 2026-04-24 23:22 | 43.34049 | -87.12363 | 29277 ft | 543 kts | 41° |
| 2026-04-24 23:22 | 43.36909 | -87.09071 | 29665 ft | 543 kts | 41° |
| 2026-04-24 23:22 | 43.39798 | -87.05743 | 30051 ft | 544 kts | 41° |
| 2026-04-24 23:23 | 43.42733 | -87.02356 | 30461 ft | 545 kts | 41° |
| 2026-04-24 23:23 | 43.45637 | -86.99001 | 30931 ft | 544 kts | 41° |
| 2026-04-24 23:23 | 43.48541 | -86.95642 | 31411 ft | 543 kts | 41° |
| 2026-04-24 23:23 | 43.51441 | -86.92283 | 31794 ft | 543 kts | 41° |
| 2026-04-24 23:24 | 43.54340 | -86.88921 | 32225 ft | 543 kts | 41° |
| 2026-04-24 23:24 | 43.57219 | -86.85577 | 32670 ft | 542 kts | 41° |
| 2026-04-24 23:24 | 43.60080 | -86.82251 | 33117 ft | 541 kts | 41° |
| 2026-04-24 23:24 | 43.62935 | -86.78928 | 33598 ft | 539 kts | 41° |
| 2026-04-24 23:25 | 43.65811 | -86.75575 | 34049 ft | 538 kts | 41° |
| 2026-04-24 23:25 | 43.68672 | -86.72234 | 34437 ft | 539 kts | 41° |
| 2026-04-24 23:25 | 43.71495 | -86.68935 | 34821 ft | 539 kts | 41° |
| 2026-04-24 23:25 | 43.74377 | -86.65562 | 35246 ft | 539 kts | 41° |
| 2026-04-24 23:26 | 43.77219 | -86.62231 | 35705 ft | 537 kts | 40° |
| 2026-04-24 23:26 | 43.80053 | -86.58906 | 36136 ft | 536 kts | 40° |
| 2026-04-24 23:26 | 43.82877 | -86.55589 | 36549 ft | 534 kts | 40° |
| 2026-04-24 23:26 | 43.85703 | -86.52265 | 36810 ft | 535 kts | 40° |
| 2026-04-24 23:27 | 43.88513 | -86.48954 | 36798 ft | 537 kts | 40° |
| 2026-04-24 23:27 | 43.94171 | -86.42278 | 36792 ft | 534 kts | 40° |
| 2026-04-24 23:28 | 43.99822 | -86.35592 | 36805 ft | 536 kts | 40° |
| 2026-04-24 23:28 | 44.05489 | -86.28868 | 36791 ft | 536 kts | 41° |
| 2026-04-24 23:29 | 44.11134 | -86.22154 | 36763 ft | 532 kts | 41° |
| 2026-04-24 23:29 | 44.16724 | -86.15488 | 36779 ft | 533 kts | 41° |
| 2026-04-24 23:30 | 44.22334 | -86.08781 | 36764 ft | 532 kts | 41° |
| 2026-04-24 23:30 | 44.27926 | -86.02078 | 36760 ft | 533 kts | 41° |
| 2026-04-24 23:31 | 44.33524 | -85.95350 | 36762 ft | 531 kts | 41° |
| 2026-04-24 23:31 | 44.39093 | -85.88639 | 36763 ft | 529 kts | 41° |
| 2026-04-24 23:32 | 44.44674 | -85.81897 | 36766 ft | 531 kts | 41° |
| 2026-04-24 23:32 | 44.50224 | -85.75174 | 36760 ft | 527 kts | 41° |
| 2026-04-24 23:33 | 44.55721 | -85.68499 | 36769 ft | 526 kts | 41° |
| 2026-04-24 23:33 | 44.61243 | -85.61774 | 36767 ft | 528 kts | 40° |
| 2026-04-24 23:34 | 44.66784 | -85.55011 | 36772 ft | 526 kts | 41° |
| 2026-04-24 23:34 | 44.72221 | -85.48197 | 36773 ft | 527 kts | 41° |
| 2026-04-24 23:35 | 44.77641 | -85.41339 | 36759 ft | 526 kts | 41° |
| 2026-04-24 23:35 | 44.83070 | -85.34457 | 36770 ft | 525 kts | 42° |
| 2026-04-24 23:36 | 44.88450 | -85.27625 | 36760 ft | 522 kts | 42° |
| 2026-04-24 23:36 | 44.93827 | -85.20778 | 36759 ft | 525 kts | 42° |
| 2026-04-24 23:37 | 44.99250 | -85.13857 | 36773 ft | 523 kts | 42° |
| 2026-04-24 23:37 | 45.07301 | -85.03549 | 36762 ft | 523 kts | 42° |
| 2026-04-24 23:38 | 45.12673 | -84.96648 | 36757 ft | 521 kts | 42° |
| 2026-04-24 23:38 | 45.18039 | -84.89738 | 36772 ft | 522 kts | 42° |
| 2026-04-24 23:39 | 45.22661 | -84.83770 | 36769 ft | 520 kts | 41° |
| 2026-04-24 23:39 | 45.27984 | -84.76881 | 36774 ft | 522 kts | 42° |
| 2026-04-24 23:40 | 45.33346 | -84.69922 | 36780 ft | 521 kts | 42° |
| 2026-04-24 23:40 | 45.38667 | -84.62998 | 36787 ft | 520 kts | 42° |
| 2026-04-24 23:41 | 45.43998 | -84.56043 | 36792 ft | 521 kts | 42° |
| 2026-04-24 23:41 | 45.49271 | -84.49144 | 36801 ft | 519 kts | 42° |
| 2026-04-24 23:42 | 45.54599 | -84.42156 | 36802 ft | 520 kts | 41° |
| 2026-04-24 23:42 | 45.59899 | -84.35185 | 36808 ft | 517 kts | 41° |
| 2026-04-24 23:43 | 45.65173 | -84.28230 | 36807 ft | 519 kts | 42° |
| 2026-04-24 23:43 | 45.70425 | -84.21285 | 36811 ft | 519 kts | 42° |
| 2026-04-24 23:44 | 45.75718 | -84.14267 | 36828 ft | 517 kts | 42° |
| 2026-04-24 23:44 | 45.80980 | -84.07272 | 36828 ft | 517 kts | 42° |
| 2026-04-24 23:45 | 45.86202 | -84.00310 | 36823 ft | 516 kts | 42° |
| 2026-04-24 23:45 | 45.91459 | -83.93283 | 36832 ft | 518 kts | 42° |
| 2026-04-24 23:46 | 45.96704 | -83.86254 | 36841 ft | 516 kts | 41° |
| 2026-04-24 23:46 | 46.01961 | -83.79188 | 36844 ft | 518 kts | 41° |
| 2026-04-24 23:47 | 46.07178 | -83.72157 | 36848 ft | 513 kts | 41° |
| 2026-04-24 23:47 | 46.12364 | -83.65151 | 36843 ft | 516 kts | 41° |
| 2026-04-24 23:48 | 46.17577 | -83.58088 | 36842 ft | 514 kts | 41° |
| 2026-04-24 23:48 | 46.22742 | -83.51070 | 36844 ft | 513 kts | 41° |
| 2026-04-24 23:49 | 46.27937 | -83.43992 | 36846 ft | 512 kts | 41° |
| 2026-04-24 23:49 | 46.33094 | -83.36948 | 36847 ft | 512 kts | 41° |
| 2026-04-24 23:50 | 46.38266 | -83.29862 | 36842 ft | 510 kts | 41° |
| 2026-04-24 23:50 | 46.43387 | -83.22829 | 36839 ft | 511 kts | 41° |
| 2026-04-24 23:51 | 46.48515 | -83.15766 | 36842 ft | 507 kts | 41° |
| 2026-04-24 23:51 | 46.53639 | -83.08691 | 36846 ft | 509 kts | 41° |
| 2026-04-24 23:52 | 46.58709 | -83.01668 | 36850 ft | 508 kts | 41° |
| 2026-04-24 23:52 | 46.63808 | -82.94588 | 36848 ft | 506 kts | 41° |
| 2026-04-24 23:53 | 46.68870 | -82.87540 | 36856 ft | 507 kts | 41° |
| 2026-04-24 23:53 | 46.73946 | -82.80454 | 36858 ft | 504 kts | 41° |
| 2026-04-24 23:54 | 46.78975 | -82.73412 | 36857 ft | 502 kts | 41° |
| 2026-04-24 23:54 | 46.83997 | -82.66362 | 36864 ft | 504 kts | 40° |
| 2026-04-24 23:55 | 46.89010 | -82.59305 | 36863 ft | 500 kts | 40° |
| 2026-04-24 23:55 | 46.94007 | -82.52251 | 36866 ft | 502 kts | 40° |
| 2026-04-24 23:56 | 46.99019 | -82.45158 | 36866 ft | 499 kts | 40° |
| 2026-04-24 23:56 | 47.03983 | -82.38111 | 36875 ft | 497 kts | 40° |
| 2026-04-24 23:57 | 47.08902 | -82.31111 | 36867 ft | 496 kts | 41° |
| 2026-04-24 23:57 | 47.13854 | -82.24046 | 36868 ft | 498 kts | 41° |
| 2026-04-24 23:58 | 47.18782 | -82.16992 | 36878 ft | 493 kts | 40° |
| 2026-04-24 23:58 | 47.23691 | -82.09949 | 36885 ft | 496 kts | 40° |
| 2026-04-24 23:59 | 47.28591 | -82.02898 | 36890 ft | 493 kts | 40° |
| 2026-04-24 23:59 | 47.33501 | -81.95813 | 36896 ft | 491 kts | 40° |
| 2026-04-25 00:00 | 47.38350 | -81.88799 | 36900 ft | 492 kts | 40° |
| 2026-04-25 00:00 | 47.43205 | -81.81757 | 36912 ft | 492 kts | 40° |
| 2026-04-25 00:01 | 47.48054 | -81.74702 | 36904 ft | 489 kts | 40° |
| 2026-04-25 00:01 | 47.52886 | -81.67655 | 36916 ft | 490 kts | 39° |
| 2026-04-25 00:02 | 47.57710 | -81.60598 | 36925 ft | 488 kts | 39° |
| 2026-04-25 00:02 | 47.62518 | -81.53547 | 36923 ft | 487 kts | 39° |
| 2026-04-25 00:03 | 47.67289 | -81.46530 | 36920 ft | 485 kts | 39° |
| 2026-04-25 00:03 | 47.72081 | -81.39465 | 36931 ft | 486 kts | 39° |
| 2026-04-25 00:04 | 47.76837 | -81.32432 | 36921 ft | 484 kts | 40° |
| 2026-04-25 00:04 | 47.81569 | -81.25416 | 36923 ft | 484 kts | 39° |
| 2026-04-25 00:05 | 47.86333 | -81.18333 | 36930 ft | 482 kts | 39° |
| 2026-04-25 00:05 | 47.91048 | -81.11302 | 36930 ft | 480 kts | 40° |
| 2026-04-25 00:06 | 47.95742 | -81.04285 | 36928 ft | 478 kts | 39° |
| 2026-04-25 00:06 | 48.00415 | -80.97281 | 36924 ft | 480 kts | 39° |
| 2026-04-25 00:07 | 48.05097 | -80.90242 | 36934 ft | 477 kts | 39° |
| 2026-04-25 00:07 | 48.09771 | -80.83199 | 36937 ft | 479 kts | 39° |
| 2026-04-25 00:08 | 48.14392 | -80.76213 | 36947 ft | 475 kts | 39° |
| 2026-04-25 00:08 | 48.19106 | -80.69273 | 36958 ft | 473 kts | 37° |
| 2026-04-25 00:09 | 48.23888 | -80.62548 | 36955 ft | 472 kts | 37° |
| 2026-04-25 00:09 | 48.28657 | -80.55808 | 36954 ft | 473 kts | 37° |
| 2026-04-25 00:10 | 48.33374 | -80.49105 | 36962 ft | 470 kts | 37° |
| 2026-04-25 00:10 | 48.38143 | -80.42310 | 36963 ft | 472 kts | 37° |
| 2026-04-25 00:11 | 48.42853 | -80.35573 | 36971 ft | 470 kts | 37° |
| 2026-04-25 00:11 | 48.47570 | -80.28806 | 36955 ft | 467 kts | 37° |
| 2026-04-25 00:12 | 48.52266 | -80.22055 | 36957 ft | 471 kts | 37° |
| 2026-04-25 00:12 | 48.56974 | -80.15260 | 36966 ft | 468 kts | 37° |
| 2026-04-25 00:13 | 48.61676 | -80.08460 | 36966 ft | 467 kts | 37° |
| 2026-04-25 00:13 | 48.64001 | -80.05090 | 36615 ft | 467 kts | 37° |
| 2026-04-25 00:13 | 48.66338 | -80.01698 | 36763 ft | 466 kts | 37° |
| 2026-04-25 00:14 | 48.68650 | -79.98337 | 36982 ft | 465 kts | 37° |
| 2026-04-25 00:14 | 48.70971 | -79.94962 | 36994 ft | 468 kts | 37° |
| 2026-04-25 00:14 | 48.75672 | -79.88109 | 36985 ft | 470 kts | 37° |
| 2026-04-25 00:15 | 48.80356 | -79.81258 | 36997 ft | 469 kts | 37° |
| 2026-04-25 00:15 | 48.85024 | -79.74412 | 36963 ft | 468 kts | 37° |
| 2026-04-25 00:16 | 48.89677 | -79.67571 | 36967 ft | 469 kts | 37° |
| 2026-04-25 00:16 | 48.94344 | -79.60690 | 36993 ft | 467 kts | 37° |
| 2026-04-25 00:17 | 48.98980 | -79.53838 | 36998 ft | 467 kts | 37° |
| 2026-04-25 00:17 | 49.03626 | -79.46950 | 36978 ft | 466 kts | 37° |
| 2026-04-25 00:18 | 49.08239 | -79.40093 | 37011 ft | 466 kts | 37° |
| 2026-04-25 00:18 | 49.12871 | -79.33188 | 37024 ft | 464 kts | 38° |
| 2026-04-25 00:19 | 49.15150 | -79.29784 | 37292 ft | 464 kts | 38° |
| 2026-04-25 00:19 | 49.17464 | -79.26324 | 36784 ft | 466 kts | 38° |
| 2026-04-25 00:19 | 49.19751 | -79.22897 | 37033 ft | 462 kts | 38° |
| 2026-04-25 00:19 | 49.22033 | -79.19472 | 37021 ft | 458 kts | 38° |
| 2026-04-25 00:20 | 49.26591 | -79.12625 | 37024 ft | 462 kts | 38° |
| 2026-04-25 00:20 | 49.31170 | -79.05725 | 37011 ft | 459 kts | 38° |
| 2026-04-25 00:21 | 49.35696 | -78.98885 | 37039 ft | 459 kts | 38° |
| 2026-04-25 00:21 | 49.40229 | -78.92017 | 37026 ft | 459 kts | 38° |
| 2026-04-25 00:22 | 49.44721 | -78.85191 | 37049 ft | 459 kts | 39° |
| 2026-04-25 00:22 | 49.49258 | -78.78281 | 36852 ft | 459 kts | 39° |
| 2026-04-25 00:23 | 49.51512 | -78.74837 | 37043 ft | 459 kts | 39° |
| 2026-04-25 00:23 | 49.53773 | -78.71383 | 37042 ft | 463 kts | 39° |
| 2026-04-25 00:23 | 49.58345 | -78.64378 | 37047 ft | 462 kts | 39° |
| 2026-04-25 00:24 | 49.62861 | -78.57439 | 37049 ft | 461 kts | 39° |
| 2026-04-25 00:24 | 49.67365 | -78.50503 | 37052 ft | 462 kts | 40° |
| 2026-04-25 00:25 | 49.71897 | -78.43500 | 37049 ft | 462 kts | 40° |
| 2026-04-25 00:25 | 49.76446 | -78.36453 | 37052 ft | 463 kts | 40° |
| 2026-04-25 00:26 | 49.80976 | -78.29414 | 37056 ft | 464 kts | 41° |
| 2026-04-25 00:26 | 49.85509 | -78.22351 | 37058 ft | 464 kts | 41° |
| 2026-04-25 00:27 | 49.90046 | -78.15264 | 37062 ft | 466 kts | 41° |
| 2026-04-25 00:27 | 49.94587 | -78.08149 | 37062 ft | 466 kts | 41° |
| 2026-04-25 00:28 | 49.99126 | -78.01018 | 37066 ft | 467 kts | 41° |
| 2026-04-25 00:28 | 50.03674 | -77.93850 | 37069 ft | 467 kts | 42° |
| 2026-04-25 00:29 | 50.08236 | -77.86641 | 37071 ft | 466 kts | 42° |
| 2026-04-25 00:29 | 50.12763 | -77.79466 | 37084 ft | 467 kts | 42° |
| 2026-04-25 00:30 | 50.17266 | -77.72309 | 37086 ft | 465 kts | 42° |
| 2026-04-25 00:30 | 50.21774 | -77.65123 | 37082 ft | 465 kts | 42° |
| 2026-04-25 00:31 | 50.26298 | -77.57892 | 37090 ft | 464 kts | 43° |
| 2026-04-25 00:31 | 50.30757 | -77.50742 | 37088 ft | 464 kts | 42° |
| 2026-04-25 00:32 | 50.35264 | -77.43497 | 37085 ft | 464 kts | 43° |
| 2026-04-25 00:32 | 50.39740 | -77.36279 | 37089 ft | 463 kts | 43° |
| 2026-04-25 00:33 | 50.44196 | -77.29073 | 37091 ft | 464 kts | 43° |
| 2026-04-25 00:33 | 50.48660 | -77.21834 | 37088 ft | 462 kts | 43° |
| 2026-04-25 00:34 | 50.53127 | -77.14569 | 37095 ft | 463 kts | 44° |
| 2026-04-25 00:34 | 50.57570 | -77.07322 | 37095 ft | 462 kts | 44° |
| 2026-04-25 00:35 | 50.62003 | -77.00069 | 37099 ft | 461 kts | 44° |
| 2026-04-25 00:35 | 50.66436 | -76.92797 | 37097 ft | 461 kts | 44° |
| 2026-04-25 00:36 | 50.70860 | -76.85517 | 37093 ft | 460 kts | 44° |
| 2026-04-25 00:36 | 50.75276 | -76.78230 | 37097 ft | 460 kts | 44° |
| 2026-04-25 00:37 | 50.79669 | -76.70957 | 37093 ft | 459 kts | 44° |
| 2026-04-25 00:37 | 50.84057 | -76.63675 | 37098 ft | 460 kts | 44° |
| 2026-04-25 00:38 | 50.88445 | -76.56370 | 37097 ft | 458 kts | 44° |
| 2026-04-25 00:38 | 50.92787 | -76.49120 | 37098 ft | 458 kts | 43° |
| 2026-04-25 00:39 | 50.97156 | -76.41805 | 37098 ft | 458 kts | 43° |
| 2026-04-25 00:39 | 51.01515 | -76.34484 | 37097 ft | 456 kts | 44° |
| 2026-04-25 00:40 | 51.05848 | -76.27187 | 37095 ft | 457 kts | 44° |
| 2026-04-25 00:40 | 51.10181 | -76.19866 | 37106 ft | 455 kts | 44° |
| 2026-04-25 00:41 | 51.14500 | -76.12549 | 37112 ft | 456 kts | 44° |
| 2026-04-25 00:41 | 51.18824 | -76.05203 | 37107 ft | 456 kts | 44° |
| 2026-04-25 00:42 | 51.23132 | -75.97862 | 37101 ft | 455 kts | 44° |
| 2026-04-25 00:42 | 51.27432 | -75.90512 | 37118 ft | 454 kts | 44° |
| 2026-04-25 00:43 | 51.31704 | -75.83188 | 37119 ft | 452 kts | 44° |
| 2026-04-25 00:43 | 51.35984 | -75.75831 | 37117 ft | 452 kts | 44° |
| 2026-04-25 00:44 | 51.40235 | -75.68501 | 37113 ft | 453 kts | 44° |
| 2026-04-25 00:44 | 51.44481 | -75.61156 | 37124 ft | 450 kts | 44° |
| 2026-04-25 00:45 | 51.47233 | -75.56387 | 37121 ft | 451 kts | 44° |
| 2026-04-25 00:45 | 51.47815 | -75.55379 | 36862 ft | 454 kts | 47° |
| 2026-04-25 00:45 | 51.49716 | -75.52084 | 36868 ft | 458 kts | 53° |
| 2026-04-25 00:46 | 51.54037 | -75.44552 | 36835 ft | 465 kts | 53° |
| 2026-04-25 00:47 | 51.60642 | -75.33003 | 36937 ft | 472 kts | 49° |
| 2026-04-25 00:47 | 51.65068 | -75.25239 | 37093 ft | 467 kts | 45° |
| 2026-04-25 00:47 | 51.67206 | -75.21474 | 37170 ft | 451 kts | 44° |
| 2026-04-25 00:48 | 51.69301 | -75.17785 | 37158 ft | 443 kts | 44° |
| 2026-04-25 00:48 | 51.73496 | -75.10389 | 37171 ft | 449 kts | 44° |
| 2026-04-25 00:49 | 51.77687 | -75.02972 | 37166 ft | 447 kts | 44° |
| 2026-04-25 00:49 | 51.81820 | -74.95637 | 37170 ft | 446 kts | 44° |
| 2026-04-25 00:50 | 51.86003 | -74.88188 | 37165 ft | 445 kts | 44° |
| 2026-04-25 00:50 | 51.90129 | -74.80821 | 37171 ft | 447 kts | 44° |
| 2026-04-25 00:51 | 51.94276 | -74.73392 | 37174 ft | 445 kts | 44° |
| 2026-04-25 00:51 | 51.98404 | -74.65978 | 37165 ft | 446 kts | 45° |
| 2026-04-25 00:52 | 52.02540 | -74.58524 | 37169 ft | 445 kts | 44° |
| 2026-04-25 00:52 | 52.06659 | -74.51081 | 37169 ft | 445 kts | 45° |
| 2026-04-25 00:53 | 52.10772 | -74.43626 | 37174 ft | 445 kts | 45° |
| 2026-04-25 00:53 | 52.14886 | -74.36146 | 37187 ft | 444 kts | 45° |
| 2026-04-25 00:54 | 52.18991 | -74.28661 | 37189 ft | 444 kts | 45° |
| 2026-04-25 00:54 | 52.23098 | -74.21149 | 37173 ft | 446 kts | 45° |
| 2026-04-25 00:55 | 52.27192 | -74.13638 | 37177 ft | 444 kts | 45° |
| 2026-04-25 00:55 | 52.31287 | -74.06104 | 37174 ft | 443 kts | 45° |
| 2026-04-25 00:56 | 52.35345 | -73.98614 | 37178 ft | 443 kts | 45° |
| 2026-04-25 00:56 | 52.39426 | -73.91058 | 37171 ft | 442 kts | 45° |
| 2026-04-25 00:57 | 52.43465 | -73.83559 | 37180 ft | 443 kts | 46° |
| 2026-04-25 00:57 | 52.47535 | -73.75979 | 37173 ft | 442 kts | 46° |
| 2026-04-25 00:58 | 52.51559 | -73.68462 | 37181 ft | 443 kts | 46° |
| 2026-04-25 00:58 | 52.55618 | -73.60856 | 37192 ft | 443 kts | 46° |
| 2026-04-25 00:59 | 52.59667 | -73.53247 | 37199 ft | 442 kts | 46° |
| 2026-04-25 00:59 | 52.63683 | -73.45675 | 37181 ft | 442 kts | 46° |
| 2026-04-25 01:00 | 52.67714 | -73.38052 | 37183 ft | 442 kts | 46° |
| 2026-04-25 01:00 | 52.71733 | -73.30431 | 37183 ft | 444 kts | 46° |
| 2026-04-25 01:01 | 52.75776 | -73.22739 | 37183 ft | 442 kts | 47° |
| 2026-04-25 01:01 | 52.79769 | -73.15118 | 37184 ft | 441 kts | 47° |
| 2026-04-25 01:02 | 52.83792 | -73.07417 | 37180 ft | 443 kts | 47° |
| 2026-04-25 01:02 | 52.87790 | -72.99740 | 37178 ft | 442 kts | 47° |
| 2026-04-25 01:03 | 52.91790 | -72.92036 | 37180 ft | 443 kts | 47° |
| 2026-04-25 01:03 | 52.95789 | -72.84309 | 37177 ft | 444 kts | 47° |
| 2026-04-25 01:03 | 52.97787 | -72.80440 | 37327 ft | 443 kts | 47° |
| 2026-04-25 01:04 | 52.99770 | -72.76593 | 37262 ft | 443 kts | 47° |
| 2026-04-25 01:04 | 53.03756 | -72.68842 | 37199 ft | 437 kts | 47° |
| 2026-04-25 01:05 | 53.07685 | -72.61182 | 37185 ft | 441 kts | 47° |
| 2026-04-25 01:05 | 53.11665 | -72.53394 | 37210 ft | 439 kts | 47° |
| 2026-04-25 01:06 | 53.15609 | -72.45656 | 37212 ft | 441 kts | 47° |
| 2026-04-25 01:06 | 53.19538 | -72.37923 | 37201 ft | 441 kts | 48° |
| 2026-04-25 01:07 | 53.23495 | -72.30109 | 37205 ft | 440 kts | 49° |
| 2026-04-25 01:07 | 53.27428 | -72.22317 | 37203 ft | 440 kts | 49° |
| 2026-04-25 01:08 | 53.31372 | -72.14480 | 37207 ft | 440 kts | 49° |
| 2026-04-25 01:08 | 53.35281 | -72.06690 | 37220 ft | 442 kts | 49° |
| 2026-04-25 01:09 | 53.39214 | -71.98826 | 37232 ft | 441 kts | 49° |
| 2026-04-25 01:09 | 53.43127 | -71.90977 | 37237 ft | 441 kts | 49° |
| 2026-04-25 01:10 | 53.47055 | -71.83071 | 37242 ft | 441 kts | 49° |
| 2026-04-25 01:10 | 53.50948 | -71.75214 | 37248 ft | 440 kts | 49° |
| 2026-04-25 01:11 | 53.54843 | -71.67326 | 37244 ft | 440 kts | 49° |
| 2026-04-25 01:11 | 53.58750 | -71.59390 | 37237 ft | 441 kts | 49° |
| 2026-04-25 01:12 | 53.62629 | -71.51484 | 37240 ft | 439 kts | 49° |
| 2026-04-25 01:12 | 53.66516 | -71.43537 | 37244 ft | 440 kts | 49° |
| 2026-04-25 01:13 | 53.70382 | -71.35607 | 37231 ft | 440 kts | 49° |
| 2026-04-25 01:13 | 53.74253 | -71.27641 | 37246 ft | 439 kts | 50° |
| 2026-04-25 01:14 | 53.78109 | -71.19683 | 37240 ft | 440 kts | 50° |
| 2026-04-25 01:14 | 53.81954 | -71.11721 | 37245 ft | 440 kts | 50° |
| 2026-04-25 01:15 | 53.85806 | -71.03719 | 37234 ft | 440 kts | 50° |
| 2026-04-25 01:15 | 53.89665 | -70.95676 | 37233 ft | 440 kts | 50° |
| 2026-04-25 01:16 | 53.93502 | -70.87653 | 37231 ft | 441 kts | 50° |
| 2026-04-25 01:16 | 53.97344 | -70.79594 | 37222 ft | 441 kts | 50° |
| 2026-04-25 01:17 | 54.01186 | -70.71506 | 37221 ft | 440 kts | 50° |
| 2026-04-25 01:17 | 54.05017 | -70.63419 | 37230 ft | 440 kts | 50° |
| 2026-04-25 01:18 | 54.08826 | -70.55351 | 37233 ft | 441 kts | 50° |
| 2026-04-25 01:18 | 54.12640 | -70.47243 | 37249 ft | 439 kts | 50° |
| 2026-04-25 01:19 | 54.16464 | -70.39090 | 37245 ft | 440 kts | 50° |
| 2026-04-25 01:19 | 54.20258 | -70.30973 | 37251 ft | 440 kts | 51° |
| 2026-04-25 01:20 | 54.24075 | -70.22781 | 37252 ft | 440 kts | 51° |
| 2026-04-25 01:20 | 54.27862 | -70.14627 | 37258 ft | 441 kts | 51° |
| 2026-04-25 01:21 | 54.31653 | -70.06436 | 37258 ft | 440 kts | 51° |
| 2026-04-25 01:21 | 54.35440 | -69.98227 | 37252 ft | 440 kts | 51° |
| 2026-04-25 01:22 | 54.39218 | -69.90011 | 37254 ft | 440 kts | 51° |
| 2026-04-25 01:22 | 54.43002 | -69.81754 | 37258 ft | 441 kts | 51° |
| 2026-04-25 01:23 | 54.46772 | -69.73501 | 37262 ft | 442 kts | 51° |
| 2026-04-25 01:23 | 54.50548 | -69.65205 | 37266 ft | 442 kts | 51° |
| 2026-04-25 01:24 | 54.54313 | -69.56908 | 37262 ft | 441 kts | 51° |
| 2026-04-25 01:24 | 54.58045 | -69.48653 | 37261 ft | 441 kts | 51° |
| 2026-04-25 01:25 | 54.61819 | -69.40280 | 37265 ft | 442 kts | 51° |
| 2026-04-25 01:25 | 54.65566 | -69.31938 | 37277 ft | 441 kts | 52° |
| 2026-04-25 01:26 | 54.69305 | -69.23585 | 37280 ft | 442 kts | 52° |
| 2026-04-25 01:26 | 54.73038 | -69.15218 | 37283 ft | 442 kts | 52° |
| 2026-04-25 01:27 | 54.76778 | -69.06806 | 37285 ft | 443 kts | 52° |
| 2026-04-25 01:27 | 54.80507 | -68.98389 | 37290 ft | 441 kts | 52° |
| 2026-04-25 01:28 | 54.86079 | -68.85761 | 37275 ft | 442 kts | 52° |
| 2026-04-25 01:28 | 54.89814 | -68.77261 | 37268 ft | 444 kts | 52° |
| 2026-04-25 01:29 | 54.93528 | -68.68778 | 37267 ft | 441 kts | 52° |
| 2026-04-25 01:29 | 54.97237 | -68.60277 | 37268 ft | 442 kts | 52° |
| 2026-04-25 01:30 | 55.00912 | -68.51825 | 37269 ft | 442 kts | 52° |
| 2026-04-25 01:30 | 55.04611 | -68.43288 | 37276 ft | 442 kts | 52° |
| 2026-04-25 01:31 | 55.08310 | -68.34723 | 37281 ft | 443 kts | 53° |
| 2026-04-25 01:31 | 55.12001 | -68.26148 | 37310 ft | 442 kts | 53° |
| 2026-04-25 01:32 | 55.15671 | -68.17587 | 37315 ft | 442 kts | 53° |
| 2026-04-25 01:32 | 55.19345 | -68.08991 | 37317 ft | 442 kts | 53° |
| 2026-04-25 01:33 | 55.23015 | -68.00375 | 37319 ft | 444 kts | 53° |
| 2026-04-25 01:33 | 55.26671 | -67.91760 | 37322 ft | 442 kts | 53° |
| 2026-04-25 01:34 | 55.30334 | -67.83097 | 37319 ft | 442 kts | 53° |
| 2026-04-25 01:34 | 55.33802 | -67.74867 | 37310 ft | 443 kts | 53° |
| 2026-04-25 01:35 | 55.37427 | -67.66238 | 37308 ft | 442 kts | 53° |
| 2026-04-25 01:35 | 55.41055 | -67.57568 | 37311 ft | 442 kts | 53° |
| 2026-04-25 01:36 | 55.44686 | -67.48862 | 37312 ft | 442 kts | 53° |
| 2026-04-25 01:36 | 55.48294 | -67.40180 | 37314 ft | 443 kts | 53° |
| 2026-04-25 01:37 | 55.51933 | -67.31392 | 37315 ft | 443 kts | 54° |
| 2026-04-25 01:37 | 55.55529 | -67.22679 | 37315 ft | 443 kts | 54° |
| 2026-04-25 01:38 | 55.59134 | -67.13911 | 37318 ft | 443 kts | 54° |
| 2026-04-25 01:38 | 55.62732 | -67.05129 | 37319 ft | 443 kts | 54° |
| 2026-04-25 01:39 | 55.66421 | -66.96446 | 37322 ft | 444 kts | 52° |
| 2026-04-25 01:39 | 55.70173 | -66.87892 | 37329 ft | 442 kts | 52° |
| 2026-04-25 01:40 | 55.73924 | -66.79326 | 37333 ft | 442 kts | 52° |
| 2026-04-25 01:40 | 55.77674 | -66.70740 | 37334 ft | 442 kts | 52° |
| 2026-04-25 01:41 | 55.81435 | -66.62101 | 37332 ft | 441 kts | 52° |
| 2026-04-25 01:41 | 55.85162 | -66.53515 | 37328 ft | 443 kts | 52° |
| 2026-04-25 01:42 | 55.88909 | -66.44851 | 37334 ft | 442 kts | 52° |
| 2026-04-25 01:42 | 55.92652 | -66.36166 | 37342 ft | 442 kts | 52° |
| 2026-04-25 01:43 | 55.96374 | -66.27500 | 37355 ft | 442 kts | 53° |
| 2026-04-25 01:43 | 56.00063 | -66.18881 | 37353 ft | 441 kts | 53° |
| 2026-04-25 01:44 | 56.03777 | -66.10173 | 37350 ft | 443 kts | 53° |
| 2026-04-25 01:44 | 56.07510 | -66.01386 | 37342 ft | 443 kts | 53° |
| 2026-04-25 01:45 | 56.11200 | -65.92671 | 37343 ft | 442 kts | 53° |
| 2026-04-25 01:45 | 56.14896 | -65.83910 | 37344 ft | 441 kts | 52° |
| 2026-04-25 01:46 | 56.18573 | -65.75163 | 37337 ft | 442 kts | 52° |
| 2026-04-25 01:46 | 56.22259 | -65.66364 | 37335 ft | 440 kts | 53° |
| 2026-04-25 01:47 | 56.25927 | -65.57576 | 37336 ft | 441 kts | 53° |
| 2026-04-25 01:47 | 56.29586 | -65.48778 | 37335 ft | 441 kts | 53° |
| 2026-04-25 01:48 | 56.33230 | -65.39982 | 37333 ft | 438 kts | 53° |
| 2026-04-25 01:48 | 56.36871 | -65.31162 | 37333 ft | 441 kts | 53° |
| 2026-04-25 01:49 | 56.40482 | -65.22383 | 37336 ft | 439 kts | 53° |
| 2026-04-25 01:49 | 56.44109 | -65.13535 | 37341 ft | 440 kts | 53° |
| 2026-04-25 01:50 | 56.47711 | -65.04713 | 37337 ft | 440 kts | 53° |
| 2026-04-25 01:50 | 56.51343 | -64.95787 | 37346 ft | 438 kts | 53° |
| 2026-04-25 01:51 | 56.54938 | -64.86921 | 37345 ft | 439 kts | 53° |
| 2026-04-25 01:51 | 56.58513 | -64.78069 | 37352 ft | 439 kts | 53° |
| 2026-04-25 01:52 | 56.62111 | -64.69128 | 37355 ft | 440 kts | 53° |
| 2026-04-25 01:52 | 56.65678 | -64.60231 | 37340 ft | 438 kts | 53° |
| 2026-04-25 01:53 | 56.69243 | -64.51308 | 37318 ft | 439 kts | 53° |
| 2026-04-25 01:53 | 56.72807 | -64.42355 | 37301 ft | 437 kts | 53° |
| 2026-04-25 01:54 | 56.76349 | -64.33422 | 37308 ft | 439 kts | 54° |
| 2026-04-25 01:54 | 56.79901 | -64.24429 | 37310 ft | 436 kts | 54° |
| 2026-04-25 01:55 | 56.83429 | -64.15469 | 37314 ft | 438 kts | 54° |
| 2026-04-25 01:55 | 56.86946 | -64.06500 | 37311 ft | 436 kts | 54° |
| 2026-04-25 01:56 | 56.90470 | -63.97480 | 37306 ft | 439 kts | 53° |
| 2026-04-25 01:56 | 56.94000 | -63.88412 | 37308 ft | 437 kts | 53° |
| 2026-04-25 01:57 | 56.99256 | -63.74844 | 37301 ft | 436 kts | 54° |
| 2026-04-25 01:58 | 57.02749 | -63.65787 | 37302 ft | 438 kts | 54° |
| 2026-04-25 01:58 | 57.06256 | -63.56660 | 37056 ft | 438 kts | 54° |
| 2026-04-25 01:58 | 57.07980 | -63.52159 | 37249 ft | 437 kts | 54° |
| 2026-04-25 01:59 | 57.09741 | -63.47554 | 37302 ft | 440 kts | 54° |
| 2026-04-25 01:59 | 57.13255 | -63.38338 | 37322 ft | 443 kts | 54° |
| 2026-04-25 02:00 | 57.16772 | -63.29076 | 37330 ft | 440 kts | 54° |
| 2026-04-25 02:00 | 57.20271 | -63.19830 | 37320 ft | 444 kts | 54° |
| 2026-04-25 02:01 | 57.23758 | -63.10577 | 37322 ft | 442 kts | 54° |
| 2026-04-25 02:01 | 57.27258 | -63.01258 | 37331 ft | 443 kts | 54° |
| 2026-04-25 02:02 | 57.30763 | -62.91884 | 37350 ft | 442 kts | 54° |
| 2026-04-25 02:02 | 57.34267 | -62.82479 | 37371 ft | 445 kts | 54° |
| 2026-04-25 02:03 | 57.37743 | -62.73111 | 37407 ft | 442 kts | 54° |
| 2026-04-25 02:03 | 57.41203 | -62.63752 | 37409 ft | 446 kts | 54° |
| 2026-04-25 02:03 | 57.42941 | -62.59036 | 37543 ft | 444 kts | 54° |
| 2026-04-25 02:04 | 57.44684 | -62.54299 | 37435 ft | 440 kts | 54° |
| 2026-04-25 02:04 | 57.48103 | -62.44977 | 37428 ft | 440 kts | 54° |
| 2026-04-25 02:05 | 57.51547 | -62.35550 | 37435 ft | 442 kts | 54° |
| 2026-04-25 02:05 | 57.54968 | -62.26150 | 37433 ft | 442 kts | 55° |
| 2026-04-25 02:06 | 57.58411 | -62.16653 | 37427 ft | 442 kts | 55° |
| 2026-04-25 02:06 | 57.61826 | -62.07193 | 37433 ft | 442 kts | 55° |
| 2026-04-25 02:07 | 57.65241 | -61.97697 | 37449 ft | 443 kts | 55° |
| 2026-04-25 02:07 | 57.68646 | -61.88191 | 37437 ft | 442 kts | 55° |
| 2026-04-25 02:08 | 57.72027 | -61.78715 | 37402 ft | 442 kts | 55° |
| 2026-04-25 02:08 | 57.75429 | -61.69141 | 37377 ft | 443 kts | 55° |
| 2026-04-25 02:09 | 57.78821 | -61.59559 | 37407 ft | 443 kts | 55° |
| 2026-04-25 02:09 | 57.82191 | -61.49998 | 37422 ft | 442 kts | 55° |
| 2026-04-25 02:10 | 57.85572 | -61.40370 | 37422 ft | 445 kts | 55° |
| 2026-04-25 02:10 | 57.88959 | -61.30685 | 37432 ft | 445 kts | 56° |
| 2026-04-25 02:11 | 57.92328 | -61.21012 | 37443 ft | 445 kts | 56° |
| 2026-04-25 02:11 | 57.95702 | -61.11286 | 37441 ft | 446 kts | 56° |
| 2026-04-25 02:12 | 57.99064 | -61.01553 | 37438 ft | 446 kts | 56° |
| 2026-04-25 02:12 | 58.02410 | -60.91827 | 37428 ft | 443 kts | 56° |
| 2026-04-25 02:13 | 58.05744 | -60.82097 | 37422 ft | 445 kts | 56° |
| 2026-04-25 02:13 | 58.09104 | -60.72251 | 37412 ft | 446 kts | 56° |
| 2026-04-25 02:14 | 58.12441 | -60.62430 | 37418 ft | 446 kts | 56° |
| 2026-04-25 02:14 | 58.15785 | -60.52550 | 37414 ft | 448 kts | 56° |
| 2026-04-25 02:15 | 58.19117 | -60.42664 | 37423 ft | 446 kts | 56° |
| 2026-04-25 02:15 | 58.22423 | -60.32812 | 37409 ft | 448 kts | 57° |
| 2026-04-25 02:16 | 58.25741 | -60.22884 | 37407 ft | 448 kts | 57° |
| 2026-04-25 02:16 | 58.29065 | -60.12899 | 37408 ft | 448 kts | 57° |
| 2026-04-25 02:17 | 58.32370 | -60.02925 | 37415 ft | 449 kts | 57° |
| 2026-04-25 02:17 | 58.35661 | -59.92954 | 37414 ft | 449 kts | 57° |
| 2026-04-25 02:18 | 58.38966 | -59.82896 | 37415 ft | 448 kts | 57° |
| 2026-04-25 02:18 | 58.42242 | -59.72883 | 37402 ft | 449 kts | 57° |
| 2026-04-25 02:19 | 58.45551 | -59.62728 | 37401 ft | 451 kts | 57° |
| 2026-04-25 02:19 | 58.48819 | -59.52657 | 37405 ft | 449 kts | 57° |
| 2026-04-25 02:20 | 58.52086 | -59.42542 | 37399 ft | 449 kts | 57° |
| 2026-04-25 02:20 | 58.55356 | -59.32377 | 37403 ft | 451 kts | 58° |
| 2026-04-25 02:21 | 58.58615 | -59.22201 | 37404 ft | 450 kts | 58° |
| 2026-04-25 02:21 | 58.61866 | -59.12005 | 37389 ft | 452 kts | 58° |
| 2026-04-25 02:22 | 58.65115 | -59.01774 | 37399 ft | 452 kts | 58° |
| 2026-04-25 02:22 | 58.68371 | -58.91474 | 37380 ft | 452 kts | 58° |
| 2026-04-25 02:23 | 58.71617 | -58.81160 | 37383 ft | 452 kts | 58° |
| 2026-04-25 02:23 | 58.74842 | -58.70867 | 37381 ft | 452 kts | 58° |
| 2026-04-25 02:24 | 58.78065 | -58.60536 | 37380 ft | 452 kts | 58° |
| 2026-04-25 02:24 | 58.81276 | -58.50198 | 37376 ft | 453 kts | 58° |
| 2026-04-25 02:25 | 58.84499 | -58.39777 | 37377 ft | 453 kts | 58° |
| 2026-04-25 02:25 | 58.87707 | -58.29352 | 37380 ft | 454 kts | 59° |
| 2026-04-25 02:26 | 58.90898 | -58.18942 | 37377 ft | 453 kts | 59° |
| 2026-04-25 02:26 | 58.94106 | -58.08427 | 37200 ft | 453 kts | 59° |
| 2026-04-25 02:26 | 58.95695 | -58.03202 | 37369 ft | 453 kts | 59° |
| 2026-04-25 02:27 | 58.97291 | -57.97973 | 37374 ft | 456 kts | 57° |
| 2026-04-25 02:27 | 59.01308 | -57.88573 | 37384 ft | 457 kts | 47° |
| 2026-04-25 02:28 | 59.05574 | -57.79494 | 37374 ft | 456 kts | 48° |
| 2026-04-25 02:28 | 59.09755 | -57.70339 | 37377 ft | 456 kts | 49° |
| 2026-04-25 02:29 | 59.13915 | -57.61067 | 37373 ft | 455 kts | 49° |
| 2026-04-25 02:29 | 59.18028 | -57.51792 | 37377 ft | 456 kts | 49° |
| 2026-04-25 02:30 | 59.22136 | -57.42457 | 37384 ft | 455 kts | 49° |
| 2026-04-25 02:30 | 59.26224 | -57.33110 | 37388 ft | 456 kts | 50° |
| 2026-04-25 02:31 | 59.30320 | -57.23698 | 37388 ft | 456 kts | 50° |
| 2026-04-25 02:31 | 59.34411 | -57.14255 | 37385 ft | 456 kts | 50° |
| 2026-04-25 02:32 | 59.38483 | -57.04814 | 37388 ft | 456 kts | 50° |
| 2026-04-25 02:32 | 59.42547 | -56.95354 | 37390 ft | 456 kts | 50° |
| 2026-04-25 02:33 | 59.46623 | -56.85825 | 37379 ft | 456 kts | 50° |
| 2026-04-25 02:33 | 59.50684 | -56.76293 | 37379 ft | 456 kts | 50° |
| 2026-04-25 02:34 | 59.54718 | -56.66783 | 37376 ft | 457 kts | 50° |
| 2026-04-25 02:34 | 59.58750 | -56.57239 | 37373 ft | 457 kts | 50° |
| 2026-04-25 02:35 | 59.62789 | -56.47640 | 37373 ft | 457 kts | 50° |
| 2026-04-25 02:35 | 59.66839 | -56.37975 | 37368 ft | 456 kts | 50° |
| 2026-04-25 02:36 | 59.70849 | -56.28365 | 37302 ft | 457 kts | 51° |
| 2026-04-25 02:36 | 59.72847 | -56.23561 | 37528 ft | 456 kts | 51° |
| 2026-04-25 02:36 | 59.74860 | -56.18710 | 37389 ft | 455 kts | 51° |
| 2026-04-25 02:37 | 59.78848 | -56.09074 | 37375 ft | 455 kts | 51° |
| 2026-04-25 02:37 | 59.82836 | -55.99396 | 37370 ft | 455 kts | 51° |
| 2026-04-25 02:38 | 59.86837 | -55.89645 | 37374 ft | 455 kts | 51° |
| 2026-04-25 02:38 | 59.90818 | -55.79904 | 37379 ft | 455 kts | 51° |
| 2026-04-25 02:39 | 59.94758 | -55.70223 | 37385 ft | 455 kts | 51° |
| 2026-04-25 02:39 | 59.98741 | -55.60392 | 37393 ft | 456 kts | 51° |
| 2026-04-25 02:40 | 60.02694 | -55.50596 | 37394 ft | 455 kts | 51° |
| 2026-04-25 02:40 | 60.06641 | -55.40774 | 37390 ft | 455 kts | 51° |
| 2026-04-25 02:41 | 60.10575 | -55.30941 | 37128 ft | 455 kts | 52° |
| 2026-04-25 02:41 | 60.12534 | -55.26029 | 37555 ft | 453 kts | 52° |
| 2026-04-25 02:41 | 60.14518 | -55.21044 | 37457 ft | 459 kts | 52° |
| 2026-04-25 02:41 | 60.16468 | -55.16134 | 37252 ft | 454 kts | 52° |
| 2026-04-25 02:42 | 60.18448 | -55.11138 | 37390 ft | 455 kts | 52° |
| 2026-04-25 02:42 | 60.22367 | -55.01217 | 37388 ft | 457 kts | 52° |
| 2026-04-25 02:43 | 60.26302 | -54.91213 | 37380 ft | 457 kts | 52° |
| 2026-04-25 02:43 | 60.30206 | -54.81246 | 37369 ft | 458 kts | 52° |
| 2026-04-25 02:44 | 60.34138 | -54.71161 | 37371 ft | 458 kts | 52° |
| 2026-04-25 02:44 | 60.38028 | -54.61142 | 37368 ft | 457 kts | 52° |
| 2026-04-25 02:45 | 60.41930 | -54.51050 | 37370 ft | 458 kts | 52° |
| 2026-04-25 02:45 | 60.45844 | -54.40879 | 37361 ft | 458 kts | 52° |
| 2026-04-25 02:46 | 60.49712 | -54.30786 | 37371 ft | 458 kts | 52° |
| 2026-04-25 02:46 | 60.53610 | -54.20569 | 37368 ft | 459 kts | 52° |
| 2026-04-25 02:47 | 60.57503 | -54.10321 | 37370 ft | 459 kts | 52° |
| 2026-04-25 02:47 | 60.61354 | -54.00138 | 37366 ft | 459 kts | 53° |
| 2026-04-25 02:48 | 60.65235 | -53.89830 | 37366 ft | 459 kts | 52° |
| 2026-04-25 02:48 | 60.69099 | -53.79522 | 37373 ft | 460 kts | 52° |
| 2026-04-25 02:49 | 60.72948 | -53.69209 | 37358 ft | 460 kts | 52° |
| 2026-04-25 02:49 | 60.76815 | -53.58799 | 37369 ft | 460 kts | 52° |
| 2026-04-25 02:50 | 60.80667 | -53.48384 | 37364 ft | 460 kts | 52° |
| 2026-04-25 02:50 | 60.84485 | -53.38014 | 37361 ft | 461 kts | 53° |
| 2026-04-25 02:51 | 60.88337 | -53.27506 | 37367 ft | 461 kts | 53° |
| 2026-04-25 02:51 | 60.92156 | -53.17039 | 37363 ft | 462 kts | 53° |
| 2026-04-25 02:52 | 60.95972 | -53.06534 | 37353 ft | 462 kts | 53° |
| 2026-04-25 02:52 | 60.99789 | -52.95975 | 37355 ft | 463 kts | 53° |
| 2026-04-25 02:53 | 61.03616 | -52.85343 | 37349 ft | 463 kts | 53° |
| 2026-04-25 02:53 | 61.07431 | -52.74696 | 37351 ft | 462 kts | 53° |
| 2026-04-25 02:54 | 61.11231 | -52.64041 | 37349 ft | 463 kts | 53° |
| 2026-04-25 02:54 | 61.15009 | -52.53397 | 37343 ft | 464 kts | 53° |
| 2026-04-25 02:55 | 61.18820 | -52.42612 | 37338 ft | 464 kts | 53° |
| 2026-04-25 02:55 | 61.22603 | -52.31857 | 37329 ft | 465 kts | 54° |
| 2026-04-25 02:56 | 61.26387 | -52.21047 | 37328 ft | 465 kts | 54° |
| 2026-04-25 02:56 | 61.30156 | -52.10229 | 37324 ft | 464 kts | 54° |
| 2026-04-25 02:57 | 61.33926 | -51.99359 | 37318 ft | 465 kts | 54° |
| 2026-04-25 02:57 | 61.37681 | -51.88481 | 37315 ft | 465 kts | 54° |
| 2026-04-25 02:58 | 61.41426 | -51.77580 | 37314 ft | 467 kts | 54° |
| 2026-04-25 02:58 | 61.45186 | -51.66581 | 37310 ft | 468 kts | 54° |
| 2026-04-25 02:59 | 61.48943 | -51.55540 | 37308 ft | 467 kts | 54° |
| 2026-04-25 02:59 | 61.52683 | -51.44498 | 37308 ft | 468 kts | 54° |
| 2026-04-25 03:00 | 61.56403 | -51.33460 | 37312 ft | 468 kts | 55° |
| 2026-04-25 03:00 | 61.60143 | -51.22310 | 37306 ft | 468 kts | 55° |
| 2026-04-25 03:01 | 61.63858 | -51.11182 | 37300 ft | 469 kts | 55° |
| 2026-04-25 03:01 | 61.67596 | -50.99927 | 37296 ft | 469 kts | 55° |
| 2026-04-25 03:02 | 61.71307 | -50.88703 | 37296 ft | 469 kts | 55° |
| 2026-04-25 03:02 | 61.75016 | -50.77428 | 37293 ft | 470 kts | 55° |
| 2026-04-25 03:03 | 61.78696 | -50.66184 | 37298 ft | 471 kts | 55° |
| 2026-04-25 03:03 | 61.82402 | -50.54806 | 37306 ft | 471 kts | 55° |
| 2026-04-25 03:04 | 61.86111 | -50.43363 | 37305 ft | 472 kts | 55° |
| 2026-04-25 03:04 | 61.89805 | -50.31912 | 37304 ft | 472 kts | 56° |
| 2026-04-25 03:05 | 61.95322 | -50.14698 | 37298 ft | 474 kts | 56° |
| 2026-04-25 03:05 | 61.98986 | -50.03148 | 37294 ft | 473 kts | 58° |
| 2026-04-25 03:06 | 62.02176 | -49.91013 | 37294 ft | 474 kts | 62° |
| 2026-04-25 03:06 | 62.05285 | -49.78719 | 37291 ft | 473 kts | 62° |
| 2026-04-25 03:07 | 62.08363 | -49.66409 | 37283 ft | 473 kts | 62° |
| 2026-04-25 03:07 | 62.11445 | -49.53970 | 37273 ft | 473 kts | 62° |
| 2026-04-25 03:08 | 62.14493 | -49.41583 | 37267 ft | 472 kts | 62° |
| 2026-04-25 03:08 | 62.17510 | -49.29241 | 37263 ft | 473 kts | 63° |
| 2026-04-25 03:09 | 62.20541 | -49.16764 | 37256 ft | 474 kts | 63° |
| 2026-04-25 03:09 | 62.23565 | -49.04246 | 37248 ft | 474 kts | 63° |
| 2026-04-25 03:10 | 62.26560 | -48.91771 | 37224 ft | 475 kts | 63° |
| 2026-04-25 03:10 | 62.29572 | -48.79156 | 37241 ft | 476 kts | 63° |
| 2026-04-25 03:11 | 62.32557 | -48.66575 | 37251 ft | 477 kts | 63° |
| 2026-04-25 03:11 | 62.35558 | -48.53859 | 37265 ft | 479 kts | 63° |
| 2026-04-25 03:12 | 62.38544 | -48.41125 | 37261 ft | 478 kts | 63° |
| 2026-04-25 03:12 | 62.41502 | -48.28440 | 37265 ft | 479 kts | 64° |
| 2026-04-25 03:13 | 62.44486 | -48.15568 | 37273 ft | 482 kts | 64° |
| 2026-04-25 03:13 | 62.47451 | -48.02703 | 37260 ft | 480 kts | 64° |
| 2026-04-25 03:14 | 62.50404 | -47.89811 | 37263 ft | 482 kts | 64° |
| 2026-04-25 03:14 | 62.53360 | -47.76824 | 37260 ft | 481 kts | 64° |
| 2026-04-25 03:15 | 62.56292 | -47.63869 | 37258 ft | 483 kts | 64° |
| 2026-04-25 03:15 | 62.59234 | -47.50787 | 37257 ft | 485 kts | 64° |
| 2026-04-25 03:16 | 62.62135 | -47.37815 | 37266 ft | 483 kts | 64° |
| 2026-04-25 03:16 | 62.65044 | -47.24720 | 37290 ft | 481 kts | 65° |
| 2026-04-25 03:17 | 62.67938 | -47.11618 | 37283 ft | 482 kts | 65° |
| 2026-04-25 03:17 | 62.70807 | -46.98541 | 37312 ft | 482 kts | 65° |
| 2026-04-25 03:18 | 62.73668 | -46.85425 | 37332 ft | 483 kts | 65° |
| 2026-04-25 03:18 | 62.76528 | -46.72229 | 37357 ft | 483 kts | 65° |
| 2026-04-25 03:19 | 62.79380 | -46.58990 | 37367 ft | 483 kts | 65° |
| 2026-04-25 03:19 | 62.82200 | -46.45813 | 37370 ft | 483 kts | 65° |
| 2026-04-25 03:20 | 62.85019 | -46.32561 | 37395 ft | 483 kts | 66° |
| 2026-04-25 03:20 | 62.87824 | -46.19289 | 37429 ft | 482 kts | 66° |
| 2026-04-25 03:21 | 62.90616 | -46.05992 | 37424 ft | 482 kts | 66° |
| 2026-04-25 03:21 | 62.93395 | -45.92673 | 37465 ft | 483 kts | 66° |
| 2026-04-25 03:22 | 62.96176 | -45.79261 | 37473 ft | 483 kts | 66° |
| 2026-04-25 03:22 | 62.98936 | -45.65861 | 37444 ft | 484 kts | 66° |
| 2026-04-25 03:23 | 63.01686 | -45.52423 | 37453 ft | 484 kts | 66° |
| 2026-04-25 03:23 | 63.04421 | -45.38973 | 37442 ft | 483 kts | 66° |
| 2026-04-25 03:24 | 63.07132 | -45.25553 | 37430 ft | 484 kts | 67° |
| 2026-04-25 03:24 | 63.09851 | -45.12003 | 37426 ft | 484 kts | 67° |
| 2026-04-25 03:25 | 63.12548 | -44.98474 | 37410 ft | 483 kts | 67° |
| 2026-04-25 03:25 | 63.15235 | -44.84903 | 37445 ft | 484 kts | 68° |
| 2026-04-25 03:26 | 63.17899 | -44.71361 | 37417 ft | 484 kts | 68° |
| 2026-04-25 03:26 | 63.20567 | -44.57707 | 37409 ft | 484 kts | 68° |
| 2026-04-25 03:27 | 63.23217 | -44.44049 | 37407 ft | 485 kts | 68° |
| 2026-04-25 03:27 | 63.25847 | -44.30404 | 37403 ft | 485 kts | 68° |
| 2026-04-25 03:28 | 63.28483 | -44.16638 | 37371 ft | 486 kts | 68° |
| 2026-04-25 03:28 | 63.31103 | -44.02859 | 37354 ft | 486 kts | 68° |
| 2026-04-25 03:29 | 63.33705 | -43.89080 | 37347 ft | 486 kts | 68° |
| 2026-04-25 03:29 | 63.36282 | -43.75337 | 37331 ft | 485 kts | 69° |
| 2026-04-25 03:30 | 63.38856 | -43.61514 | 37331 ft | 486 kts | 69° |
| 2026-04-25 03:30 | 63.41430 | -43.47597 | 37318 ft | 485 kts | 69° |
| 2026-04-25 03:31 | 63.43986 | -43.33673 | 37305 ft | 487 kts | 70° |
| 2026-04-25 03:31 | 63.46527 | -43.19733 | 37298 ft | 486 kts | 70° |
| 2026-04-25 03:32 | 63.49033 | -43.05893 | 37284 ft | 486 kts | 70° |
| 2026-04-25 03:32 | 63.51560 | -42.91837 | 37279 ft | 487 kts | 70° |
| 2026-04-25 03:33 | 63.54063 | -42.77805 | 37280 ft | 486 kts | 70° |
| 2026-04-25 03:33 | 63.56535 | -42.63855 | 37280 ft | 487 kts | 70° |
| 2026-04-25 03:34 | 63.59014 | -42.49759 | 37279 ft | 488 kts | 70° |
| 2026-04-25 03:34 | 63.61474 | -42.35670 | 37272 ft | 487 kts | 70° |
| 2026-04-25 03:35 | 63.63920 | -42.21558 | 37264 ft | 487 kts | 71° |
| 2026-04-25 03:35 | 63.66354 | -42.07408 | 37244 ft | 487 kts | 71° |
| 2026-04-25 03:36 | 63.68769 | -41.93269 | 37231 ft | 487 kts | 71° |
| 2026-04-25 03:36 | 63.71183 | -41.79022 | 37232 ft | 488 kts | 71° |
| 2026-04-25 03:37 | 63.73567 | -41.64854 | 37254 ft | 487 kts | 71° |
| 2026-04-25 03:37 | 63.75961 | -41.50511 | 37636 ft | 491 kts | 71° |
| 2026-04-25 03:38 | 63.77152 | -41.43336 | 38047 ft | 487 kts | 70° |
| 2026-04-25 03:38 | 63.78344 | -41.36134 | 38361 ft | 486 kts | 70° |
| 2026-04-25 03:38 | 63.79510 | -41.29050 | 38587 ft | 486 kts | 71° |
| 2026-04-25 03:38 | 63.80675 | -41.21954 | 38807 ft | 486 kts | 71° |
| 2026-04-25 03:39 | 63.81855 | -41.14733 | 39026 ft | 486 kts | 71° |
| 2026-04-25 03:39 | 63.83014 | -41.07613 | 39241 ft | 485 kts | 71° |
| 2026-04-25 03:39 | 63.85319 | -40.93377 | 39314 ft | 486 kts | 71° |
| 2026-04-25 03:40 | 63.87623 | -40.79037 | 39326 ft | 487 kts | 71° |
| 2026-04-25 03:40 | 63.89919 | -40.64628 | 39331 ft | 487 kts | 71° |
| 2026-04-25 03:41 | 63.92202 | -40.50196 | 39345 ft | 486 kts | 71° |
| 2026-04-25 03:41 | 63.94466 | -40.35768 | 39356 ft | 486 kts | 71° |
| 2026-04-25 03:42 | 63.96596 | -40.22086 | 39362 ft | 484 kts | 72° |
| 2026-04-25 03:42 | 63.98812 | -40.07738 | 39358 ft | 483 kts | 72° |
| 2026-04-25 03:43 | 64.00919 | -39.93196 | 39361 ft | 484 kts | 74° |
| 2026-04-25 03:43 | 64.02958 | -39.78654 | 39347 ft | 485 kts | 71° |
| 2026-04-25 03:44 | 64.05164 | -39.64276 | 39349 ft | 485 kts | 74° |
| 2026-04-25 03:44 | 64.07143 | -39.49616 | 39353 ft | 484 kts | 74° |
| 2026-04-25 03:45 | 64.09098 | -39.34986 | 39342 ft | 484 kts | 75° |
| 2026-04-25 03:45 | 64.11046 | -39.20285 | 39335 ft | 484 kts | 75° |
| 2026-04-25 03:46 | 64.12974 | -39.05600 | 39339 ft | 484 kts | 75° |
| 2026-04-25 03:46 | 64.14880 | -38.90950 | 39336 ft | 484 kts | 75° |
| 2026-04-25 03:47 | 64.16778 | -38.76232 | 39328 ft | 485 kts | 75° |
| 2026-04-25 03:47 | 64.18662 | -38.61492 | 39325 ft | 484 kts | 75° |
| 2026-04-25 03:48 | 64.20527 | -38.46754 | 39329 ft | 484 kts | 75° |
| 2026-04-25 03:48 | 64.22390 | -38.31894 | 39329 ft | 484 kts | 76° |
| 2026-04-25 03:49 | 64.24219 | -38.17165 | 39326 ft | 484 kts | 76° |
| 2026-04-25 03:49 | 64.26054 | -38.02258 | 39323 ft | 485 kts | 76° |
| 2026-04-25 03:50 | 64.27857 | -37.87460 | 39321 ft | 484 kts | 76° |
| 2026-04-25 03:50 | 64.29645 | -37.72651 | 39325 ft | 483 kts | 76° |
| 2026-04-25 03:51 | 64.31419 | -37.57806 | 39322 ft | 484 kts | 76° |
| 2026-04-25 03:51 | 64.33192 | -37.42831 | 39325 ft | 484 kts | 77° |
| 2026-04-25 03:52 | 64.34928 | -37.28013 | 39324 ft | 483 kts | 77° |
| 2026-04-25 03:52 | 64.36658 | -37.13103 | 39325 ft | 484 kts | 77° |
| 2026-04-25 03:53 | 64.38374 | -36.98174 | 39327 ft | 482 kts | 77° |
| 2026-04-25 03:53 | 64.40073 | -36.83230 | 39325 ft | 482 kts | 77° |
| 2026-04-25 03:54 | 64.41750 | -36.68322 | 39333 ft | 483 kts | 78° |
| 2026-04-25 03:54 | 64.43420 | -36.53336 | 39322 ft | 482 kts | 78° |
| 2026-04-25 03:55 | 64.45069 | -36.38382 | 39315 ft | 481 kts | 78° |
| 2026-04-25 03:55 | 64.46700 | -36.23433 | 39322 ft | 481 kts | 78° |
| 2026-04-25 03:56 | 64.48314 | -36.08490 | 39318 ft | 481 kts | 79° |
| 2026-04-25 03:56 | 64.49914 | -35.93511 | 39331 ft | 481 kts | 79° |
| 2026-04-25 03:57 | 64.51496 | -35.78543 | 39323 ft | 480 kts | 79° |
| 2026-04-25 03:57 | 64.53062 | -35.63560 | 39333 ft | 480 kts | 79° |
| 2026-04-25 03:58 | 64.54608 | -35.48616 | 39328 ft | 479 kts | 79° |
| 2026-04-25 03:58 | 64.56136 | -35.33673 | 39319 ft | 480 kts | 80° |
| 2026-04-25 03:59 | 64.57653 | -35.18681 | 39326 ft | 478 kts | 80° |
| 2026-04-25 03:59 | 64.59158 | -35.03649 | 39300 ft | 477 kts | 80° |
| 2026-04-25 04:00 | 64.60639 | -34.88664 | 39305 ft | 478 kts | 80° |
| 2026-04-25 04:00 | 64.62108 | -34.73649 | 39304 ft | 477 kts | 80° |
| 2026-04-25 04:01 | 64.63557 | -34.58654 | 39302 ft | 477 kts | 80° |
| 2026-04-25 04:01 | 64.64991 | -34.43648 | 39294 ft | 477 kts | 80° |
| 2026-04-25 04:02 | 64.66419 | -34.28536 | 39298 ft | 476 kts | 81° |
| 2026-04-25 04:02 | 64.67817 | -34.13551 | 39295 ft | 476 kts | 81° |
| 2026-04-25 04:03 | 64.69206 | -33.98488 | 39299 ft | 475 kts | 81° |
| 2026-04-25 04:03 | 64.70575 | -33.83470 | 39312 ft | 475 kts | 81° |
| 2026-04-25 04:04 | 64.71927 | -33.68447 | 39289 ft | 474 kts | 81° |
| 2026-04-25 04:04 | 64.73261 | -33.53451 | 39288 ft | 475 kts | 81° |
| 2026-04-25 04:05 | 64.74580 | -33.38419 | 39290 ft | 474 kts | 81° |
| 2026-04-25 04:05 | 64.75887 | -33.23356 | 39268 ft | 473 kts | 82° |
| 2026-04-25 04:06 | 64.77178 | -33.08263 | 39295 ft | 474 kts | 82° |
| 2026-04-25 04:06 | 64.78448 | -32.93247 | 39261 ft | 474 kts | 82° |
| 2026-04-25 04:07 | 64.79709 | -32.78131 | 39264 ft | 473 kts | 82° |
| 2026-04-25 04:07 | 64.80950 | -32.63057 | 39273 ft | 473 kts | 82° |
| 2026-04-25 04:08 | 64.82171 | -32.48033 | 39257 ft | 473 kts | 82° |
| 2026-04-25 04:08 | 64.83385 | -32.32892 | 39251 ft | 473 kts | 83° |
| 2026-04-25 04:09 | 64.84576 | -32.17823 | 39255 ft | 471 kts | 83° |
| 2026-04-25 04:09 | 64.85752 | -32.02745 | 39251 ft | 473 kts | 83° |
| 2026-04-25 04:10 | 64.86917 | -31.87605 | 39244 ft | 472 kts | 83° |
| 2026-04-25 04:10 | 64.88062 | -31.72509 | 39253 ft | 472 kts | 83° |
| 2026-04-25 04:11 | 64.89751 | -31.49822 | 39257 ft | 471 kts | 83° |
| 2026-04-25 04:12 | 64.90858 | -31.34704 | 39247 ft | 471 kts | 84° |
| 2026-04-25 04:12 | 64.91950 | -31.19551 | 39254 ft | 470 kts | 84° |
| 2026-04-25 04:13 | 64.93024 | -31.04432 | 39244 ft | 470 kts | 84° |
| 2026-04-25 04:13 | 64.94081 | -30.89308 | 39251 ft | 469 kts | 84° |
| 2026-04-25 04:14 | 64.95125 | -30.74150 | 39244 ft | 470 kts | 84° |
| 2026-04-25 04:14 | 64.96153 | -30.58981 | 39242 ft | 471 kts | 84° |
| 2026-04-25 04:15 | 64.97169 | -30.43772 | 39238 ft | 471 kts | 84° |
| 2026-04-25 04:15 | 64.98163 | -30.28638 | 39240 ft | 470 kts | 85° |
| 2026-04-25 04:16 | 64.99148 | -30.13396 | 39244 ft | 470 kts | 85° |
| 2026-04-25 04:16 | 64.99983 | -29.98125 | 39251 ft | 469 kts | 88° |
| 2026-04-25 04:17 | 65.00521 | -29.82918 | 39234 ft | 468 kts | 88° |
| 2026-04-25 04:17 | 65.01027 | -29.67637 | 39227 ft | 468 kts | 88° |
| 2026-04-25 04:18 | 65.01508 | -29.52338 | 39234 ft | 469 kts | 88° |
| 2026-04-25 04:18 | 65.01968 | -29.37091 | 39231 ft | 468 kts | 88° |
| 2026-04-25 04:19 | 65.02412 | -29.21731 | 39243 ft | 469 kts | 89° |
| 2026-04-25 04:19 | 65.02838 | -29.06423 | 39242 ft | 469 kts | 89° |
| 2026-04-25 04:20 | 65.03246 | -28.91151 | 39239 ft | 468 kts | 89° |
| 2026-04-25 04:20 | 65.03641 | -28.75776 | 39244 ft | 468 kts | 89° |
| 2026-04-25 04:21 | 65.04015 | -28.60579 | 39241 ft | 469 kts | 89° |
| 2026-04-25 04:21 | 65.04378 | -28.45219 | 39240 ft | 469 kts | 89° |
| 2026-04-25 04:22 | 65.04726 | -28.29779 | 39244 ft | 468 kts | 90° |
| 2026-04-25 04:22 | 65.05054 | -28.14535 | 39244 ft | 468 kts | 90° |
| 2026-04-25 04:23 | 65.05370 | -27.99131 | 39248 ft | 469 kts | 90° |
| 2026-04-25 04:23 | 65.05669 | -27.83761 | 39254 ft | 471 kts | 90° |
| 2026-04-25 04:24 | 65.05954 | -27.68336 | 39259 ft | 469 kts | 90° |
| 2026-04-25 04:24 | 65.06207 | -27.53795 | 39258 ft | 469 kts | 90° |
| 2026-04-25 04:25 | 65.06459 | -27.38463 | 39260 ft | 469 kts | 90° |
| 2026-04-25 04:25 | 65.06695 | -27.23137 | 39257 ft | 470 kts | 91° |
| 2026-04-25 04:26 | 65.06917 | -27.07732 | 39258 ft | 470 kts | 91° |
| 2026-04-25 04:26 | 65.07124 | -26.92256 | 39256 ft | 470 kts | 91° |
| 2026-04-25 04:27 | 65.07312 | -26.76925 | 39256 ft | 469 kts | 90° |
| 2026-04-25 04:27 | 65.07486 | -26.61524 | 39258 ft | 470 kts | 90° |
| 2026-04-25 04:28 | 65.07645 | -26.46014 | 39261 ft | 470 kts | 90° |
| 2026-04-25 04:28 | 65.07787 | -26.30571 | 39260 ft | 471 kts | 91° |
| 2026-04-25 04:29 | 65.07914 | -26.15125 | 39255 ft | 472 kts | 91° |
| 2026-04-25 04:29 | 65.08025 | -25.99717 | 39257 ft | 471 kts | 91° |
| 2026-04-25 04:30 | 65.08119 | -25.84242 | 39260 ft | 471 kts | 91° |
| 2026-04-25 04:30 | 65.08199 | -25.68806 | 39259 ft | 472 kts | 91° |
| 2026-04-25 04:31 | 65.08261 | -25.53332 | 39262 ft | 472 kts | 91° |
| 2026-04-25 04:31 | 65.08308 | -25.37811 | 39267 ft | 474 kts | 91° |
| 2026-04-25 04:32 | 65.08340 | -25.22282 | 39274 ft | 472 kts | 92° |
| 2026-04-25 04:32 | 65.08355 | -25.06739 | 39281 ft | 471 kts | 92° |
| 2026-04-25 04:33 | 65.08353 | -24.91261 | 39278 ft | 472 kts | 92° |
| 2026-04-25 04:33 | 65.08337 | -24.75813 | 39281 ft | 473 kts | 92° |
| 2026-04-25 04:34 | 65.08304 | -24.60271 | 39281 ft | 473 kts | 92° |
| 2026-04-25 04:34 | 65.08254 | -24.44744 | 39278 ft | 473 kts | 92° |
| 2026-04-25 04:35 | 65.08189 | -24.29330 | 39281 ft | 473 kts | 92° |
| 2026-04-25 04:35 | 65.08109 | -24.13759 | 39278 ft | 473 kts | 92° |
| 2026-04-25 04:36 | 65.08011 | -23.98265 | 39281 ft | 473 kts | 92° |
| 2026-04-25 04:36 | 65.07897 | -23.82684 | 39278 ft | 473 kts | 92° |
| 2026-04-25 04:37 | 65.07767 | -23.67169 | 39276 ft | 474 kts | 92° |
| 2026-04-25 04:37 | 65.07622 | -23.51623 | 39277 ft | 474 kts | 92° |
| 2026-04-25 04:38 | 65.07460 | -23.36073 | 39276 ft | 473 kts | 92° |
| 2026-04-25 04:38 | 65.07282 | -23.20557 | 39278 ft | 473 kts | 93° |
| 2026-04-25 04:39 | 65.07088 | -23.05015 | 39252 ft | 473 kts | 93° |
| 2026-04-25 04:39 | 65.06879 | -22.89549 | 39250 ft | 474 kts | 93° |
| 2026-04-25 04:40 | 65.06652 | -22.73994 | 39271 ft | 475 kts | 93° |
| 2026-04-25 04:40 | 65.06408 | -22.58369 | 39270 ft | 476 kts | 92° |
| 2026-04-25 04:41 | 65.06149 | -22.42838 | 39243 ft | 476 kts | 93° |
| 2026-04-25 04:41 | 65.05875 | -22.27287 | 39272 ft | 474 kts | 94° |
| 2026-04-25 04:42 | 65.05582 | -22.11660 | 39267 ft | 476 kts | 93° |
| 2026-04-25 04:42 | 65.05274 | -21.96132 | 39261 ft | 476 kts | 93° |
| 2026-04-25 04:43 | 65.04948 | -21.80486 | 39268 ft | 477 kts | 93° |
| 2026-04-25 04:43 | 65.04607 | -21.64871 | 39263 ft | 477 kts | 93° |
| 2026-04-25 04:44 | 65.04249 | -21.49225 | 39246 ft | 478 kts | 93° |
| 2026-04-25 04:44 | 65.03873 | -21.33574 | 39245 ft | 477 kts | 94° |
| 2026-04-25 04:45 | 65.03483 | -21.17975 | 39250 ft | 478 kts | 94° |
| 2026-04-25 04:45 | 65.03073 | -21.02264 | 39271 ft | 479 kts | 94° |
| 2026-04-25 04:46 | 65.02649 | -20.86633 | 39277 ft | 479 kts | 94° |
| 2026-04-25 04:46 | 65.02209 | -20.71016 | 39267 ft | 479 kts | 94° |
| 2026-04-25 04:47 | 65.01749 | -20.55307 | 39255 ft | 479 kts | 94° |
| 2026-04-25 04:47 | 65.01273 | -20.39600 | 39243 ft | 478 kts | 94° |
| 2026-04-25 04:48 | 65.00784 | -20.23976 | 39228 ft | 480 kts | 94° |
| 2026-04-25 04:48 | 65.00275 | -20.08298 | 39216 ft | 480 kts | 94° |
| 2026-04-25 04:49 | 64.99470 | -19.92678 | 39207 ft | 481 kts | 98° |
| 2026-04-25 04:49 | 64.98501 | -19.77170 | 39213 ft | 481 kts | 98° |
| 2026-04-25 04:50 | 64.97501 | -19.61661 | 39226 ft | 480 kts | 98° |
| 2026-04-25 04:50 | 64.96472 | -19.46103 | 39244 ft | 481 kts | 98° |
| 2026-04-25 04:51 | 64.95427 | -19.30595 | 39235 ft | 482 kts | 98° |
| 2026-04-25 04:51 | 64.94355 | -19.14978 | 39220 ft | 482 kts | 98° |
| 2026-04-25 04:52 | 64.93272 | -18.99467 | 39187 ft | 482 kts | 98° |
| 2026-04-25 04:52 | 64.92171 | -18.83952 | 39178 ft | 483 kts | 98° |
| 2026-04-25 04:53 | 64.91060 | -18.68538 | 39187 ft | 482 kts | 98° |
| 2026-04-25 04:53 | 64.89925 | -18.53026 | 39221 ft | 482 kts | 98° |
| 2026-04-25 04:54 | 64.88776 | -18.37564 | 39233 ft | 483 kts | 98° |
| 2026-04-25 04:54 | 64.87603 | -18.22001 | 39230 ft | 483 kts | 99° |
| 2026-04-25 04:55 | 64.86418 | -18.06512 | 39198 ft | 483 kts | 99° |
| 2026-04-25 04:55 | 64.85214 | -17.90985 | 39187 ft | 483 kts | 99° |
| 2026-04-25 04:56 | 64.84000 | -17.75573 | 39200 ft | 485 kts | 99° |
| 2026-04-25 04:56 | 64.82765 | -17.60107 | 39198 ft | 485 kts | 99° |
| 2026-04-25 04:57 | 64.81513 | -17.44634 | 39190 ft | 485 kts | 99° |
| 2026-04-25 04:57 | 64.80238 | -17.29104 | 39183 ft | 486 kts | 99° |
| 2026-04-25 04:58 | 64.78947 | -17.13581 | 39183 ft | 486 kts | 99° |
| 2026-04-25 04:58 | 64.77715 | -16.98957 | 39185 ft | 487 kts | 99° |
| 2026-04-25 04:59 | 64.76394 | -16.83487 | 39192 ft | 487 kts | 99° |
| 2026-04-25 04:59 | 64.75060 | -16.68055 | 39207 ft | 487 kts | 99° |
| 2026-04-25 05:00 | 64.73707 | -16.52621 | 39220 ft | 487 kts | 99° |
| 2026-04-25 05:00 | 64.72330 | -16.37112 | 39230 ft | 489 kts | 99° |
| 2026-04-25 05:01 | 64.70935 | -16.21590 | 39228 ft | 488 kts | 100° |
| 2026-04-25 05:01 | 64.69534 | -16.06192 | 39234 ft | 489 kts | 100° |
| 2026-04-25 05:02 | 64.68112 | -15.90770 | 39227 ft | 489 kts | 100° |
| 2026-04-25 05:02 | 64.66664 | -15.75246 | 39227 ft | 489 kts | 100° |
| 2026-04-25 05:03 | 64.65208 | -15.59835 | 39239 ft | 489 kts | 100° |
| 2026-04-25 05:03 | 64.63730 | -15.44366 | 39260 ft | 490 kts | 100° |
| 2026-04-25 05:04 | 64.62240 | -15.28964 | 39277 ft | 490 kts | 101° |
| 2026-04-25 05:04 | 64.60732 | -15.13555 | 39275 ft | 492 kts | 101° |
| 2026-04-25 05:05 | 64.59194 | -14.98034 | 39258 ft | 491 kts | 101° |
| 2026-04-25 05:05 | 64.58429 | -14.90373 | 39130 ft | 490 kts | 101° |
| 2026-04-25 05:05 | 64.57661 | -14.82725 | 39271 ft | 491 kts | 101° |
| 2026-04-25 05:06 | 64.56094 | -14.67264 | 39283 ft | 492 kts | 100° |
| 2026-04-25 05:06 | 64.54516 | -14.51872 | 39366 ft | 492 kts | 101° |
| 2026-04-25 05:07 | 64.52928 | -14.36561 | 39393 ft | 492 kts | 100° |
| 2026-04-25 05:07 | 64.51310 | -14.21123 | 39395 ft | 492 kts | 101° |
| 2026-04-25 05:08 | 64.49686 | -14.05799 | 39402 ft | 494 kts | 101° |
| 2026-04-25 05:08 | 64.48031 | -13.90361 | 39400 ft | 494 kts | 101° |
| 2026-04-25 05:09 | 64.46365 | -13.74989 | 39400 ft | 495 kts | 101° |
| 2026-04-25 05:09 | 64.44688 | -13.59674 | 39402 ft | 495 kts | 101° |
| 2026-04-25 05:10 | 64.42993 | -13.44370 | 39401 ft | 493 kts | 101° |
| 2026-04-25 05:10 | 64.41271 | -13.28977 | 39400 ft | 495 kts | 102° |
| 2026-04-25 05:11 | 64.39537 | -13.13640 | 39393 ft | 495 kts | 101° |
| 2026-04-25 05:11 | 64.37788 | -12.98326 | 39399 ft | 495 kts | 101° |
| 2026-04-25 05:12 | 64.35136 | -12.75418 | 39397 ft | 495 kts | 101° |
| 2026-04-25 05:12 | 64.33352 | -12.60202 | 39389 ft | 496 kts | 101° |
| 2026-04-25 05:13 | 64.31535 | -12.44852 | 39391 ft | 497 kts | 101° |
| 2026-04-25 05:13 | 64.29712 | -12.29619 | 39387 ft | 497 kts | 102° |
| 2026-04-25 05:14 | 64.27866 | -12.14342 | 39393 ft | 497 kts | 102° |
| 2026-04-25 05:15 | 64.25068 | -11.91464 | 39391 ft | 497 kts | 102° |
| 2026-04-25 05:15 | 64.23196 | -11.76352 | 39386 ft | 498 kts | 102° |
| 2026-04-25 05:16 | 64.21281 | -11.61036 | 39373 ft | 499 kts | 101° |
| 2026-04-25 05:16 | 64.19363 | -11.45845 | 39392 ft | 500 kts | 101° |
| 2026-04-25 05:17 | 64.17426 | -11.30644 | 39392 ft | 499 kts | 102° |
| 2026-04-25 05:17 | 64.15473 | -11.15476 | 39383 ft | 501 kts | 102° |
| 2026-04-25 05:18 | 64.13492 | -11.00224 | 39385 ft | 501 kts | 102° |
| 2026-04-25 05:18 | 64.11496 | -10.85003 | 39396 ft | 503 kts | 102° |
| 2026-04-25 05:19 | 64.09483 | -10.69802 | 39374 ft | 504 kts | 102° |
| 2026-04-25 05:19 | 64.07439 | -10.54511 | 39373 ft | 503 kts | 102° |
| 2026-04-25 05:20 | 64.05387 | -10.39288 | 39371 ft | 504 kts | 102° |
| 2026-04-25 05:20 | 64.03331 | -10.24184 | 39377 ft | 505 kts | 103° |
| 2026-04-25 05:21 | 64.01235 | -10.08926 | 39370 ft | 506 kts | 103° |
| 2026-04-25 05:21 | 63.98506 | -9.94126 | 39383 ft | 511 kts | 111° |
| 2026-04-25 05:22 | 63.95397 | -9.79686 | 39393 ft | 513 kts | 112° |
| 2026-04-25 05:22 | 63.92219 | -9.65232 | 39381 ft | 512 kts | 112° |
| 2026-04-25 05:23 | 63.89014 | -9.50852 | 39364 ft | 514 kts | 112° |
| 2026-04-25 05:23 | 63.85787 | -9.36516 | 39368 ft | 516 kts | 112° |
| 2026-04-25 05:24 | 63.82516 | -9.22119 | 39364 ft | 517 kts | 113° |
| 2026-04-25 05:24 | 63.79247 | -9.07841 | 39353 ft | 515 kts | 113° |
| 2026-04-25 05:25 | 63.75945 | -8.93523 | 39356 ft | 513 kts | 113° |
| 2026-04-25 05:25 | 63.72635 | -8.79264 | 39352 ft | 515 kts | 113° |
| 2026-04-25 05:26 | 63.69313 | -8.65057 | 39347 ft | 516 kts | 113° |
| 2026-04-25 05:26 | 63.65970 | -8.50850 | 39346 ft | 515 kts | 113° |
| 2026-04-25 05:27 | 63.62630 | -8.36749 | 39348 ft | 517 kts | 113° |
| 2026-04-25 05:27 | 63.59234 | -8.22504 | 39350 ft | 519 kts | 114° |
| 2026-04-25 05:28 | 63.55843 | -8.08380 | 39344 ft | 516 kts | 114° |
| 2026-04-25 05:28 | 63.52445 | -7.94307 | 39344 ft | 519 kts | 114° |
| 2026-04-25 05:29 | 63.49011 | -7.80187 | 39343 ft | 518 kts | 113° |
| 2026-04-25 05:29 | 63.45567 | -7.66110 | 39331 ft | 518 kts | 113° |
| 2026-04-25 05:30 | 63.42111 | -7.52077 | 39333 ft | 518 kts | 113° |
| 2026-04-25 05:30 | 63.38640 | -7.38069 | 39338 ft | 520 kts | 113° |
| 2026-04-25 05:31 | 63.35124 | -7.23975 | 39328 ft | 520 kts | 114° |
| 2026-04-25 05:31 | 63.31637 | -7.10082 | 39334 ft | 522 kts | 114° |
| 2026-04-25 05:32 | 63.28101 | -6.96086 | 39323 ft | 522 kts | 114° |
| 2026-04-25 05:32 | 63.24541 | -6.82080 | 39332 ft | 521 kts | 114° |
| 2026-04-25 05:33 | 63.20987 | -6.68188 | 39325 ft | 522 kts | 114° |
| 2026-04-25 05:33 | 63.17408 | -6.54285 | 39326 ft | 522 kts | 114° |
| 2026-04-25 05:34 | 63.13800 | -6.40356 | 39335 ft | 524 kts | 114° |
| 2026-04-25 05:34 | 63.10187 | -6.26493 | 39328 ft | 526 kts | 115° |
| 2026-04-25 05:35 | 63.06549 | -6.12625 | 39316 ft | 526 kts | 115° |
| 2026-04-25 05:35 | 63.02864 | -5.98661 | 39311 ft | 528 kts | 114° |
| 2026-04-25 05:36 | 62.99198 | -5.84862 | 39300 ft | 528 kts | 114° |
| 2026-04-25 05:36 | 62.95476 | -5.70933 | 39299 ft | 528 kts | 114° |
| 2026-04-25 05:37 | 62.91760 | -5.57112 | 39300 ft | 529 kts | 114° |
| 2026-04-25 05:37 | 62.88029 | -5.43325 | 39277 ft | 529 kts | 114° |
| 2026-04-25 05:38 | 62.84298 | -5.29617 | 39271 ft | 530 kts | 115° |
| 2026-04-25 05:38 | 62.80505 | -5.15768 | 39272 ft | 531 kts | 115° |
| 2026-04-25 05:39 | 62.76728 | -5.02065 | 39276 ft | 533 kts | 115° |
| 2026-04-25 05:39 | 62.72922 | -4.88337 | 39266 ft | 533 kts | 115° |
| 2026-04-25 05:40 | 62.69095 | -4.74619 | 39270 ft | 533 kts | 115° |
| 2026-04-25 05:40 | 62.65237 | -4.60874 | 39266 ft | 534 kts | 115° |
| 2026-04-25 05:41 | 62.61383 | -4.47227 | 39263 ft | 535 kts | 115° |
| 2026-04-25 05:41 | 62.57480 | -4.33488 | 39259 ft | 535 kts | 116° |
| 2026-04-25 05:42 | 62.53579 | -4.19840 | 39258 ft | 536 kts | 116° |
| 2026-04-25 05:42 | 62.49644 | -4.06153 | 39252 ft | 537 kts | 116° |
| 2026-04-25 05:43 | 62.45703 | -3.92530 | 39244 ft | 538 kts | 116° |
| 2026-04-25 05:43 | 62.41742 | -3.78918 | 39245 ft | 540 kts | 116° |
| 2026-04-25 05:44 | 62.37752 | -3.65295 | 39250 ft | 540 kts | 116° |
| 2026-04-25 05:44 | 62.33743 | -3.51680 | 39231 ft | 541 kts | 116° |
| 2026-04-25 05:45 | 62.29715 | -3.38089 | 39245 ft | 539 kts | 116° |
| 2026-04-25 05:45 | 62.25708 | -3.24645 | 39233 ft | 542 kts | 117° |
| 2026-04-25 05:46 | 62.21626 | -3.11030 | 39229 ft | 543 kts | 117° |
| 2026-04-25 05:46 | 62.17572 | -2.97590 | 39203 ft | 542 kts | 117° |
| 2026-04-25 05:47 | 62.13479 | -2.84101 | 39215 ft | 543 kts | 117° |
| 2026-04-25 05:47 | 62.09371 | -2.70643 | 39202 ft | 541 kts | 117° |
| 2026-04-25 05:48 | 62.05270 | -2.57284 | 39204 ft | 543 kts | 117° |
| 2026-04-25 05:48 | 62.01162 | -2.43983 | 39204 ft | 542 kts | 117° |
| 2026-04-25 05:49 | 61.97011 | -2.30615 | 39191 ft | 543 kts | 118° |
| 2026-04-25 05:49 | 61.92836 | -2.17249 | 39176 ft | 545 kts | 118° |
| 2026-04-25 05:50 | 61.88682 | -2.04035 | 39167 ft | 544 kts | 118° |
| 2026-04-25 05:50 | 61.84489 | -1.90767 | 39164 ft | 545 kts | 118° |
| 2026-04-25 05:51 | 61.80275 | -1.77510 | 39180 ft | 544 kts | 118° |
| 2026-04-25 05:51 | 61.76076 | -1.64383 | 39161 ft | 543 kts | 118° |
| 2026-04-25 05:52 | 61.71830 | -1.51175 | 39116 ft | 542 kts | 118° |
| 2026-04-25 05:52 | 61.67627 | -1.38183 | 39165 ft | 540 kts | 118° |
| 2026-04-25 05:53 | 61.63405 | -1.25196 | 39128 ft | 543 kts | 120° |
| 2026-04-25 05:53 | 61.59155 | -1.12204 | 39132 ft | 542 kts | 120° |
| 2026-04-25 05:54 | 61.54906 | -0.99286 | 39155 ft | 542 kts | 120° |
| 2026-04-25 05:54 | 61.48493 | -0.79924 | 39137 ft | 541 kts | 120° |
| 2026-04-25 05:55 | 61.44222 | -0.67121 | 39142 ft | 539 kts | 120° |
| 2026-04-25 05:55 | 61.39945 | -0.54366 | 39131 ft | 540 kts | 120° |
| 2026-04-25 05:56 | 61.35640 | -0.41602 | 39146 ft | 540 kts | 120° |
| 2026-04-25 05:56 | 61.31334 | -0.28907 | 39151 ft | 541 kts | 121° |
| 2026-04-25 05:57 | 61.27008 | -0.16219 | 39125 ft | 539 kts | 121° |
| 2026-04-25 05:57 | 61.22662 | -0.03594 | 39127 ft | 538 kts | 123° |
| 2026-04-25 05:58 | 61.18009 | 0.08449 | 39131 ft | 541 kts | 126° |
| 2026-04-25 05:58 | 61.13255 | 0.20449 | 39132 ft | 541 kts | 126° |
| 2026-04-25 05:59 | 61.08481 | 0.32397 | 39119 ft | 540 kts | 126° |
| 2026-04-25 05:59 | 61.03719 | 0.44235 | 39109 ft | 541 kts | 126° |
| 2026-04-25 06:00 | 60.98893 | 0.56157 | 39111 ft | 540 kts | 126° |
| 2026-04-25 06:00 | 60.94113 | 0.67901 | 39125 ft | 543 kts | 127° |
| 2026-04-25 06:01 | 60.89272 | 0.79725 | 39107 ft | 539 kts | 128° |
| 2026-04-25 06:01 | 60.84464 | 0.91410 | 39097 ft | 542 kts | 128° |
| 2026-04-25 06:02 | 60.79623 | 1.03113 | 39074 ft | 539 kts | 128° |
| 2026-04-25 06:02 | 60.74768 | 1.14788 | 39084 ft | 542 kts | 128° |
| 2026-04-25 06:03 | 60.69923 | 1.26382 | 39096 ft | 540 kts | 128° |
| 2026-04-25 06:03 | 60.65037 | 1.38011 | 39094 ft | 543 kts | 128° |
| 2026-04-25 06:04 | 60.60162 | 1.49556 | 39074 ft | 542 kts | 129° |
| 2026-04-25 06:04 | 60.55249 | 1.61131 | 39077 ft | 542 kts | 129° |
| 2026-04-25 06:05 | 60.50344 | 1.72629 | 39111 ft | 542 kts | 129° |
| 2026-04-25 06:05 | 60.45413 | 1.84130 | 39069 ft | 541 kts | 130° |
| 2026-04-25 06:06 | 60.40498 | 1.95539 | 39080 ft | 541 kts | 130° |
| 2026-04-25 06:06 | 60.35570 | 2.06917 | 39091 ft | 542 kts | 130° |
| 2026-04-25 06:07 | 60.30635 | 2.18258 | 39066 ft | 541 kts | 130° |
| 2026-04-25 06:07 | 60.25648 | 2.29660 | 39048 ft | 543 kts | 130° |
| 2026-04-25 06:08 | 60.20671 | 2.40982 | 39044 ft | 541 kts | 130° |
| 2026-04-25 06:08 | 60.15705 | 2.52224 | 39043 ft | 543 kts | 130° |
| 2026-04-25 06:09 | 60.10723 | 2.63445 | 39040 ft | 543 kts | 130° |
| 2026-04-25 06:09 | 60.05714 | 2.74673 | 39034 ft | 544 kts | 131° |
| 2026-04-25 06:10 | 60.00673 | 2.85917 | 39016 ft | 542 kts | 131° |
| 2026-04-25 06:10 | 59.95653 | 2.97058 | 39035 ft | 543 kts | 132° |
| 2026-04-25 06:11 | 59.90629 | 3.08154 | 39045 ft | 543 kts | 132° |
| 2026-04-25 06:11 | 59.85600 | 3.19207 | 39010 ft | 541 kts | 131° |
| 2026-04-25 06:12 | 59.80538 | 3.30277 | 39011 ft | 543 kts | 131° |
| 2026-04-25 06:12 | 59.75492 | 3.41262 | 39016 ft | 541 kts | 132° |
| 2026-04-25 06:13 | 59.70413 | 3.52262 | 39022 ft | 544 kts | 132° |
| 2026-04-25 06:14 | 59.62773 | 3.68712 | 39000 ft | 543 kts | 133° |
| 2026-04-25 06:14 | 59.57658 | 3.79657 | 38997 ft | 544 kts | 133° |
| 2026-04-25 06:15 | 59.52553 | 3.90531 | 39008 ft | 544 kts | 133° |
| 2026-04-25 06:15 | 59.47442 | 4.01363 | 39013 ft | 543 kts | 133° |
| 2026-04-25 06:16 | 59.42324 | 4.12160 | 38980 ft | 543 kts | 133° |
| 2026-04-25 06:16 | 59.37183 | 4.22953 | 39008 ft | 545 kts | 133° |
| 2026-04-25 06:17 | 59.32044 | 4.33691 | 39005 ft | 543 kts | 133° |
| 2026-04-25 06:17 | 59.26864 | 4.44464 | 38963 ft | 543 kts | 133° |
| 2026-04-25 06:18 | 59.21751 | 4.55047 | 38976 ft | 541 kts | 133° |
| 2026-04-25 06:18 | 59.16590 | 4.65679 | 38971 ft | 541 kts | 134° |
| 2026-04-25 06:19 | 59.11415 | 4.76290 | 38989 ft | 542 kts | 134° |
| 2026-04-25 06:19 | 59.06246 | 4.86841 | 38988 ft | 542 kts | 134° |
| 2026-04-25 06:20 | 59.01049 | 4.97397 | 38995 ft | 540 kts | 134° |
| 2026-04-25 06:20 | 58.95872 | 5.07864 | 39001 ft | 541 kts | 135° |
| 2026-04-25 06:21 | 58.90672 | 5.18328 | 38968 ft | 540 kts | 134° |
| 2026-04-25 06:21 | 58.85503 | 5.28684 | 38977 ft | 538 kts | 134° |
| 2026-04-25 06:22 | 58.80313 | 5.39034 | 38961 ft | 541 kts | 134° |
| 2026-04-25 06:22 | 58.75102 | 5.49377 | 38942 ft | 539 kts | 134° |
| 2026-04-25 06:23 | 58.69894 | 5.59669 | 38954 ft | 540 kts | 135° |
| 2026-04-25 06:23 | 58.64681 | 5.69922 | 38931 ft | 538 kts | 135° |
| 2026-04-25 06:24 | 58.59472 | 5.80122 | 38935 ft | 539 kts | 136° |
| 2026-04-25 06:24 | 58.54239 | 5.90322 | 38947 ft | 538 kts | 135° |
| 2026-04-25 06:25 | 58.49017 | 6.00455 | 38936 ft | 537 kts | 136° |
| 2026-04-25 06:25 | 58.43790 | 6.10553 | 38959 ft | 538 kts | 136° |
| 2026-04-25 06:26 | 58.38539 | 6.20649 | 38933 ft | 539 kts | 135° |
| 2026-04-25 06:26 | 58.33278 | 6.30722 | 38902 ft | 537 kts | 136° |
| 2026-04-25 06:27 | 58.28030 | 6.40723 | 38902 ft | 538 kts | 136° |
| 2026-04-25 06:27 | 58.22783 | 6.50680 | 38880 ft | 537 kts | 136° |
| 2026-04-25 06:28 | 58.17500 | 6.60660 | 38917 ft | 541 kts | 136° |
| 2026-04-25 06:28 | 58.12174 | 6.70676 | 38916 ft | 539 kts | 137° |
| 2026-04-25 06:29 | 58.06870 | 6.80606 | 38894 ft | 540 kts | 137° |
| 2026-04-25 06:29 | 58.01573 | 6.90479 | 38914 ft | 540 kts | 137° |
| 2026-04-25 06:30 | 57.96235 | 7.00385 | 38898 ft | 540 kts | 137° |
| 2026-04-25 06:30 | 57.90897 | 7.10249 | 38893 ft | 542 kts | 137° |
| 2026-04-25 06:31 | 57.85535 | 7.20111 | 38881 ft | 541 kts | 137° |
| 2026-04-25 06:31 | 57.80175 | 7.29929 | 38882 ft | 542 kts | 137° |
| 2026-04-25 06:32 | 57.74770 | 7.39783 | 38873 ft | 543 kts | 137° |
| 2026-04-25 06:32 | 57.69375 | 7.49576 | 38896 ft | 545 kts | 137° |
| 2026-04-25 06:33 | 57.63961 | 7.59362 | 38903 ft | 547 kts | 137° |
| 2026-04-25 06:33 | 57.58514 | 7.69166 | 38885 ft | 546 kts | 138° |
| 2026-04-25 06:34 | 57.53080 | 7.78902 | 38878 ft | 546 kts | 138° |
| 2026-04-25 06:34 | 57.47588 | 7.88699 | 38883 ft | 547 kts | 139° |
| 2026-04-25 06:35 | 57.42121 | 7.98407 | 38879 ft | 549 kts | 138° |
| 2026-04-25 06:35 | 57.36616 | 8.08143 | 38870 ft | 546 kts | 138° |
| 2026-04-25 06:36 | 57.31125 | 8.17811 | 38886 ft | 549 kts | 138° |
| 2026-04-25 06:36 | 57.25625 | 8.27453 | 38853 ft | 548 kts | 138° |
| 2026-04-25 06:37 | 57.20079 | 8.37133 | 38879 ft | 548 kts | 138° |
| 2026-04-25 06:37 | 57.14568 | 8.46712 | 38882 ft | 549 kts | 138° |
| 2026-04-25 06:38 | 57.09048 | 8.56264 | 38851 ft | 548 kts | 138° |
| 2026-04-25 06:38 | 57.03514 | 8.65800 | 38871 ft | 547 kts | 139° |
| 2026-04-25 06:39 | 56.98001 | 8.75259 | 38862 ft | 544 kts | 139° |
| 2026-04-25 06:39 | 56.92484 | 8.84684 | 38850 ft | 544 kts | 139° |
| 2026-04-25 06:40 | 56.86966 | 8.94072 | 38904 ft | 544 kts | 139° |
| 2026-04-25 06:40 | 56.81436 | 9.03438 | 38895 ft | 545 kts | 139° |
| 2026-04-25 06:41 | 56.75898 | 9.12782 | 38910 ft | 542 kts | 139° |
| 2026-04-25 06:41 | 56.70410 | 9.22002 | 38883 ft | 539 kts | 139° |
| 2026-04-25 06:42 | 56.64898 | 9.31221 | 38909 ft | 541 kts | 139° |
| 2026-04-25 06:42 | 56.59369 | 9.40433 | 38898 ft | 538 kts | 139° |
| 2026-04-25 06:43 | 56.53907 | 9.49494 | 38874 ft | 538 kts | 139° |
| 2026-04-25 06:43 | 56.48394 | 9.58604 | 38885 ft | 536 kts | 139° |
| 2026-04-25 06:44 | 56.42899 | 9.67646 | 38881 ft | 535 kts | 140° |
| 2026-04-25 06:44 | 56.37446 | 9.76582 | 38863 ft | 533 kts | 140° |
| 2026-04-25 06:45 | 56.31936 | 9.85575 | 38871 ft | 533 kts | 140° |
| 2026-04-25 06:45 | 56.26509 | 9.94399 | 38552 ft | 526 kts | 140° |
| 2026-04-25 06:45 | 56.23788 | 9.98809 | 37500 ft | 534 kts | 140° |
| 2026-04-25 06:46 | 56.20996 | 10.03321 | 36272 ft | 545 kts | 140° |
| 2026-04-25 06:46 | 56.18201 | 10.07833 | 35766 ft | 543 kts | 140° |
| 2026-04-25 06:46 | 56.15434 | 10.12292 | 35276 ft | 539 kts | 140° |
| 2026-04-25 06:46 | 56.12680 | 10.16720 | 34761 ft | 535 kts | 140° |
| 2026-04-25 06:47 | 56.09932 | 10.21130 | 34119 ft | 532 kts | 140° |
| 2026-04-25 06:47 | 56.07177 | 10.25542 | 33471 ft | 528 kts | 140° |
| 2026-04-25 06:47 | 56.04486 | 10.29844 | 32834 ft | 525 kts | 140° |
| 2026-04-25 06:47 | 56.01779 | 10.34161 | 32175 ft | 522 kts | 140° |
| 2026-04-25 06:48 | 55.99091 | 10.38442 | 31516 ft | 514 kts | 140° |
| 2026-04-25 06:48 | 55.96455 | 10.42630 | 30877 ft | 506 kts | 140° |
| 2026-04-25 06:48 | 55.93846 | 10.46768 | 30190 ft | 504 kts | 140° |
| 2026-04-25 06:48 | 55.91351 | 10.51183 | 29484 ft | 514 kts | 131° |
| 2026-04-25 06:49 | 55.89213 | 10.56259 | 28740 ft | 509 kts | 121° |
| 2026-04-25 06:49 | 55.87564 | 10.61690 | 28045 ft | 494 kts | 112° |
| 2026-04-25 06:49 | 55.86407 | 10.67343 | 27346 ft | 478 kts | 103° |
| 2026-04-25 06:49 | 55.85778 | 10.73029 | 26643 ft | 462 kts | 93° |
| 2026-04-25 06:50 | 55.85487 | 10.78582 | 25954 ft | 451 kts | 92° |
| 2026-04-25 06:50 | 55.85162 | 10.84010 | 25263 ft | 441 kts | 94° |
| 2026-04-25 06:50 | 55.84762 | 10.89339 | 24588 ft | 433 kts | 95° |
| 2026-04-25 06:50 | 55.84297 | 10.94600 | 23933 ft | 425 kts | 98° |
| 2026-04-25 06:51 | 55.83704 | 10.99665 | 23317 ft | 417 kts | 100° |
| 2026-04-25 06:51 | 55.83058 | 11.04647 | 22726 ft | 410 kts | 101° |
| 2026-04-25 06:51 | 55.82396 | 11.09557 | 22183 ft | 412 kts | 101° |
| 2026-04-25 06:51 | 55.81711 | 11.14480 | 21555 ft | 413 kts | 101° |
| 2026-04-25 06:52 | 55.81015 | 11.19378 | 20951 ft | 413 kts | 102° |
| 2026-04-25 06:52 | 55.80310 | 11.24255 | 20352 ft | 412 kts | 102° |
| 2026-04-25 06:52 | 55.79593 | 11.29157 | 19753 ft | 411 kts | 102° |
| 2026-04-25 06:52 | 55.78864 | 11.34093 | 19146 ft | 410 kts | 102° |
| 2026-04-25 06:53 | 55.78154 | 11.38858 | 18525 ft | 402 kts | 102° |
| 2026-04-25 06:53 | 55.77483 | 11.43612 | 17938 ft | 392 kts | 96° |
| 2026-04-25 06:53 | 55.77144 | 11.48362 | 17357 ft | 383 kts | 91° |
| 2026-04-25 06:53 | 55.76889 | 11.52999 | 16781 ft | 376 kts | 91° |
| 2026-04-25 06:54 | 55.76638 | 11.57578 | 16202 ft | 371 kts | 91° |
| 2026-04-25 06:54 | 55.76391 | 11.62023 | 15627 ft | 366 kts | 91° |
| 2026-04-25 06:54 | 55.76142 | 11.66478 | 15040 ft | 361 kts | 92° |
| 2026-04-25 06:54 | 55.75892 | 11.70893 | 14443 ft | 357 kts | 92° |
| 2026-04-25 06:55 | 55.75644 | 11.75236 | 13849 ft | 353 kts | 92° |
| 2026-04-25 06:55 | 55.75400 | 11.79484 | 13267 ft | 350 kts | 92° |
| 2026-04-25 06:55 | 55.75151 | 11.83772 | 12669 ft | 346 kts | 92° |
| 2026-04-25 06:55 | 55.74908 | 11.87945 | 12082 ft | 343 kts | 92° |
| 2026-04-25 06:56 | 55.74660 | 11.92158 | 11481 ft | 341 kts | 92° |
| 2026-04-25 06:56 | 55.74416 | 11.96287 | 10885 ft | 338 kts | 92° |
| 2026-04-25 06:56 | 55.74172 | 12.00390 | 10285 ft | 336 kts | 91° |
| 2026-04-25 06:56 | 55.73929 | 12.04453 | 9904 ft | 326 kts | 91° |
| 2026-04-25 06:57 | 55.73691 | 12.08395 | 9852 ft | 320 kts | 91° |
| 2026-04-25 06:57 | 55.73455 | 12.12299 | 9850 ft | 319 kts | 91° |
| 2026-04-25 06:57 | 55.73222 | 12.16152 | 9773 ft | 315 kts | 92° |
| 2026-04-25 06:57 | 55.72986 | 12.20013 | 9398 ft | 316 kts | 91° |
| 2026-04-25 06:58 | 55.72749 | 12.23890 | 9104 ft | 315 kts | 91° |
| 2026-04-25 06:58 | 55.72511 | 12.27716 | 8868 ft | 311 kts | 91° |
| 2026-04-25 06:58 | 55.72278 | 12.31475 | 8560 ft | 310 kts | 91° |
| 2026-04-25 06:58 | 55.72040 | 12.35297 | 8281 ft | 309 kts | 91° |
| 2026-04-25 06:59 | 55.71806 | 12.39036 | 7999 ft | 307 kts | 91° |
| 2026-04-25 06:59 | 55.71568 | 12.42807 | 7713 ft | 306 kts | 91° |
| 2026-04-25 06:59 | 55.71334 | 12.46510 | 7454 ft | 303 kts | 91° |
| 2026-04-25 06:59 | 55.71240 | 12.50148 | 7361 ft | 287 kts | 75° |
| 2026-04-25 07:00 | 55.71790 | 12.53396 | 7102 ft | 274 kts | 58° |
| 2026-04-25 07:00 | 55.72584 | 12.56410 | 6862 ft | 270 kts | 54° |
| 2026-04-25 07:00 | 55.73420 | 12.59377 | 6567 ft | 265 kts | 54° |
| 2026-04-25 07:00 | 55.74255 | 12.62289 | 6106 ft | 267 kts | 54° |
| 2026-04-25 07:01 | 55.75284 | 12.64877 | 5739 ft | 251 kts | 36° |
| 2026-04-25 07:01 | 55.76538 | 12.66954 | 5343 ft | 246 kts | 32° |
| 2026-04-25 07:01 | 55.77814 | 12.68936 | 4963 ft | 244 kts | 32° |
| 2026-04-25 07:01 | 55.79090 | 12.70917 | 4576 ft | 243 kts | 32° |
| 2026-04-25 07:02 | 55.80338 | 12.72866 | 4399 ft | 232 kts | 33° |
| 2026-04-25 07:02 | 55.81508 | 12.74702 | 4300 ft | 220 kts | 32° |
| 2026-04-25 07:02 | 55.82636 | 12.76460 | 4041 ft | 217 kts | 32° |
| 2026-04-25 07:02 | 55.83768 | 12.78223 | 3732 ft | 216 kts | 32° |
| 2026-04-25 07:03 | 55.84860 | 12.80043 | 3416 ft | 221 kts | 44° |
| 2026-04-25 07:03 | 55.85447 | 12.82622 | 3089 ft | 238 kts | 77° |
| 2026-04-25 07:03 | 55.85158 | 12.85523 | 2926 ft | 241 kts | 114° |
| 2026-04-25 07:03 | 55.84045 | 12.87769 | 2923 ft | 249 kts | 149° |
| 2026-04-25 07:04 | 55.82440 | 12.88768 | 2916 ft | 243 kts | 177° |
| 2026-04-25 07:04 | 55.80800 | 12.88805 | 2756 ft | 236 kts | 191° |
| 2026-04-25 07:04 | 55.79201 | 12.88386 | 2575 ft | 228 kts | 202° |
| 2026-04-25 07:04 | 55.77673 | 12.87600 | 2552 ft | 228 kts | 205° |
| 2026-04-25 07:05 | 55.76171 | 12.86774 | 2541 ft | 225 kts | 209° |
| 2026-04-25 07:05 | 55.74792 | 12.85514 | 2538 ft | 220 kts | 222° |
| 2026-04-25 07:05 | 55.73616 | 12.83929 | 2537 ft | 208 kts | 229° |
| 2026-04-25 07:05 | 55.72532 | 12.82267 | 2545 ft | 202 kts | 231° |
| 2026-04-25 07:06 | 55.71523 | 12.80696 | 2408 ft | 193 kts | 231° |
| 2026-04-25 07:06 | 55.70534 | 12.79159 | 2161 ft | 182 kts | 232° |
| 2026-04-25 07:06 | 55.69608 | 12.77719 | 1928 ft | 177 kts | 233° |
| 2026-04-25 07:06 | 55.68699 | 12.76304 | 1688 ft | 171 kts | 232° |
| 2026-04-25 07:07 | 55.67834 | 12.74963 | 1463 ft | 160 kts | 232° |
| 2026-04-25 07:07 | 55.67014 | 12.73690 | 1246 ft | 151 kts | 232° |
| 2026-04-25 07:07 | 55.66262 | 12.72528 | 1051 ft | 136 kts | 233° |
| 2026-04-25 07:07 | 55.65579 | 12.71453 | 864 ft | 129 kts | 233° |
| 2026-04-25 07:08 | 55.64891 | 12.70466 | 628 ft | 125 kts | 229° |
| 2026-04-25 07:08 | 55.64236 | 12.69472 | 494 ft | 126 kts | 232° |
| 2026-04-25 07:08 | 55.63588 | 12.68414 | 302 ft | 127 kts | 230° |
| 2026-04-25 07:08 | 55.62935 | 12.67401 | 139 ft | 127 kts | 230° |
| 2026-04-25 07:09 | 55.62288 | 12.66379 | 24 ft | 118 kts | 227° |
| 2026-04-25 07:09 | 55.61773 | 12.65571 | 26 ft | 76 kts | 224° |
| 2026-04-25 07:09 | 55.61457 | 12.65073 | 30 ft | 40 kts | 222° |
| 2026-04-25 07:09 | 55.61314 | 12.64833 | 31 ft | 20 kts | 231° |
| 2026-04-25 07:10 | 55.61277 | 12.64699 | 31 ft | 8 kts | 247° |
| 2026-04-25 07:10 | 55.61245 | 12.64568 | 31 ft | 13 kts | 248° |
| 2026-04-25 07:10 | 55.61208 | 12.64384 | 30 ft | 17 kts | 252° |
| 2026-04-25 07:10 | 55.61190 | 12.64188 | 30 ft | 15 kts | 286° |
| 2026-04-25 07:11 | 55.61277 | 12.64118 | 29 ft | 16 kts | 20° |
| 2026-04-25 07:11 | 55.61382 | 12.64223 | 30 ft | 19 kts | 32° |
| 2026-04-25 07:11 | 55.61500 | 12.64359 | 29 ft | 21 kts | 33° |
| 2026-04-25 07:11 | 55.61628 | 12.64506 | 29 ft | 22 kts | 33° |
| 2026-04-25 07:12 | 55.61765 | 12.64666 | 29 ft | 24 kts | 33° |
| 2026-04-25 07:12 | 55.62046 | 12.64989 | 28 ft | 19 kts | 33° |
| 2026-04-25 07:12 | 55.62153 | 12.65113 | 27 ft | 16 kts | 34° |
| 2026-04-25 07:13 | 55.62247 | 12.65193 | 27 ft | 15 kts | 5° |
| 2026-04-25 07:13 | 55.62349 | 12.65202 | 26 ft | 11 kts | 0° |
| 2026-04-25 07:13 | 55.62406 | 12.65202 | 26 ft | 7 kts | 356° |
| 2026-04-25 07:13 | 55.62426 | 12.65166 | 26 ft | 5 kts | 287° |
| 2026-04-25 07:14 | 55.62429 | 12.65105 | 26 ft | 5 kts | 270° |
| 2026-04-25 07:14 | 55.62429 | 12.65071 | 27 ft | 0 kts | 270° |